M I D A S
Marine Information and Data Acquisition System
Tripno 1710 of the Zeeleeuw from 2009-06-16 05:47:27 to 2009-06-16 17:07:37
Back to CruiseResearch ActivitiesStationsMapUnderway DataData graphs

EquipmentUnitsComment
TimeDGPSUTC
LatitudeDGPSDM.mWGS84
LongitudeDGPSDM.mWGS84
TemperatureSBE03/SBE38deg celciusITS90
ConductivitySBE21S/mITS90
SalinitySBE21 Practical Salinity Units
ChlorophylAChelsea fluorimeterg/lCalibrated in Aceton
Missing or incorrect values are displayed as -999
Sea surface data collected by the RV Zeeleeuw from 2009-06-16 05:12:25 to 2009-06-16 17:15:40
                                                                                    Next 1000 lines
Time Latitude Longitude Temperature Conductivity Salinity ChlorophylA
2009-06-16 05:12:34 51°13.663 2°55.955 20.5341 0.060937 0.333367 1.64606
2009-06-16 05:12:39 51°13.664 2°55.952 20.5344 0.060937 0.333373 1.64606
2009-06-16 05:12:45 51°13.665 2°55.947 20.5437 0.060937 0.333373 1.64606
2009-06-16 05:12:50 51°13.667 2°55.943 20.5421 0.060937 0.333379 1.64606
2009-06-16 05:12:55 51°13.668 2°55.937 20.5495 0.060937 0.333379 1.64606
2009-06-16 05:13:01 51°13.671 2°55.931 20.5512 0.060937 0.333385 1.64606
2009-06-16 05:13:07 51°13.673 2°55.923 20.5657 0.060937 0.33339 1.64606
2009-06-16 05:13:12 51°13.675 2°55.916 20.5563 0.060937 0.33339 1.64606
2009-06-16 05:13:18 51°13.677 2°55.907 20.5653 0.060937 0.33339 1.64606
2009-06-16 05:13:23 51°13.679 2°55.9 20.56 0.060937 0.333396 1.64606
2009-06-16 05:13:28 51°13.681 2°55.892 20.5651 0.060937 0.333402 1.64606
2009-06-16 05:13:33 51°13.683 2°55.885 20.5812 0.060937 0.333408 1.64606
2009-06-16 05:13:38 51°13.684 2°55.877 20.5778 0.060937 0.333414 1.64606
2009-06-16 05:13:43 51°13.686 2°55.87 20.5816 0.060937 0.33342 1.64606
2009-06-16 05:13:48 51°13.688 2°55.863 20.5781 0.060937 0.33342 1.64606
2009-06-16 05:13:53 51°13.689 2°55.856 20.5808 0.060937 0.333426 1.64606
2009-06-16 05:13:58 51°13.691 2°55.848 20.5783 0.060937 0.333438 1.64606
2009-06-16 05:14:03 51°13.692 2°55.842 20.5809 0.060937 0.333438 1.64606
2009-06-16 05:14:08 51°13.693 2°55.835 20.5817 0.060937 0.333444 1.611236
2009-06-16 05:14:13 51°13.695 2°55.828 20.5753 0.060937 0.33345 1.64606
2009-06-16 05:14:18 51°13.696 2°55.821 20.5765 0.060937 0.33345 1.64606
2009-06-16 05:14:23 51°13.697 2°55.814 20.5634 0.060937 0.33345 1.64606
2009-06-16 05:14:28 51°13.698 2°55.807 20.5782 0.060937 0.333455 1.64606
2009-06-16 05:14:33 51°13.699 2°55.8 20.5706 0.060937 0.333455 1.64606
2009-06-16 05:14:38 51°13.699 2°55.794 20.5692 0.060937 0.333461 1.64606
2009-06-16 05:14:43 51°13.7 2°55.788 20.5745 0.060937 0.333461 1.64606
2009-06-16 05:14:48 51°13.701 2°55.782 20.5734 0.060937 0.333461 1.64606
2009-06-16 05:14:53 51°13.701 2°55.777 20.5799 0.060937 0.333461 1.64606
2009-06-16 05:14:58 51°13.702 2°55.773 20.5863 0.060937 0.333467 1.611236
2009-06-16 05:15:02 51°13.702 2°55.771 20.5945 0.060937 0.333467 1.64606
2009-06-16 05:15:07 51°13.703 2°55.769 20.5919 0.060937 0.333473 1.64606
2009-06-16 05:15:12 51°13.703 2°55.768 20.5923 0.060937 0.333485 1.64606
2009-06-16 05:15:17 51°13.703 2°55.768 20.5861 0.060937 0.333485 1.64606
2009-06-16 05:15:22 51°13.704 2°55.768 20.5844 0.060937 0.333491 1.64606
2009-06-16 05:15:27 51°13.704 2°55.769 20.5849 0.060937 0.333497 1.64606
2009-06-16 05:15:32 51°13.705 2°55.769 20.5753 0.060937 0.333503 1.64606
2009-06-16 05:15:37 51°13.705 2°55.77 20.5786 0.060937 0.333509 1.64606
2009-06-16 05:15:41 51°13.706 2°55.771 20.5577 0.060937 0.333514 1.64606
2009-06-16 05:15:46 51°13.706 2°55.771 20.5503 0.060937 0.333514 1.64606
2009-06-16 05:15:51 51°13.707 2°55.772 20.5572 0.060937 0.33352 1.64606
2009-06-16 05:15:56 51°13.707 2°55.771 20.563 0.060937 0.33352 1.64606
2009-06-16 05:16:01 51°13.707 2°55.771 20.5532 0.060937 0.333526 1.64606
2009-06-16 05:16:05 51°13.707 2°55.77 20.5675 0.060937 0.333526 1.64606
2009-06-16 05:16:10 51°13.706 2°55.768 20.5699 0.060937 0.333532 1.64606
2009-06-16 05:16:15 51°13.705 2°55.766 20.5779 0.060937 0.333532 1.64606
2009-06-16 05:16:20 51°13.704 2°55.764 20.5811 0.060937 0.333532 1.64606
2009-06-16 05:16:25 51°13.703 2°55.762 20.584 0.060937 0.333532 1.64606
2009-06-16 05:16:30 51°13.701 2°55.76 20.5842 0.060937 0.333532 1.64606
2009-06-16 05:16:36 51°13.699 2°55.758 20.5909 0.060937 0.333538 1.64606
2009-06-16 05:16:41 51°13.699 2°55.756 20.5909 0.060937 0.333544 1.64606
2009-06-16 05:16:47 51°13.698 2°55.755 20.5959 0.060937 0.333544 1.64606
2009-06-16 05:16:53 51°13.699 2°55.755 20.6034 0.060937 0.333544 1.64606
2009-06-16 05:16:58 51°13.699 2°55.755 20.5981 0.060937 0.33355 1.64606
2009-06-16 05:17:03 51°13.701 2°55.755 20.604 0.060937 0.333556 1.64606
2009-06-16 05:17:08 51°13.703 2°55.756 20.606 0.060937 0.333568 1.64606
2009-06-16 05:17:13 51°13.705 2°55.756 20.6159 0.060937 0.333574 1.64606
2009-06-16 05:17:17 51°13.707 2°55.756 20.6164 0.060937 0.333574 1.64606
2009-06-16 05:17:22 51°13.71 2°55.756 20.6157 0.060937 0.333579 1.64606
2009-06-16 05:17:27 51°13.713 2°55.755 20.617 0.060937 0.333585 1.64606
2009-06-16 05:17:32 51°13.716 2°55.753 20.6117 0.060937 0.333597 1.64606
2009-06-16 05:17:37 51°13.719 2°55.751 20.6144 0.060937 0.333603 1.64606
2009-06-16 05:17:42 51°13.723 2°55.748 20.6109 0.060937 0.333609 1.64606
2009-06-16 05:17:46 51°13.726 2°55.745 20.6094 0.060937 0.333609 1.64606
2009-06-16 05:17:51 51°13.73 2°55.74 20.6018 0.060937 0.333615 1.64606
2009-06-16 05:17:56 51°13.735 2°55.735 20.5663 0.060937 0.333615 1.64606
2009-06-16 05:18:01 51°13.74 2°55.728 20.5193 0.060937 0.333615 1.64606
2009-06-16 05:18:06 51°13.745 2°55.722 20.5062 0.060937 0.333609 1.64606
2009-06-16 05:18:10 51°13.75 2°55.716 20.5179 0.060937 0.333603 1.64606
2009-06-16 05:18:16 51°13.757 2°55.708 20.5157 0.060937 0.333603 1.64606
2009-06-16 05:18:20 51°13.762 2°55.702 20.5289 0.060937 0.333603 1.64606
2009-06-16 05:18:25 51°13.768 2°55.694 20.5384 0.060937 0.333603 1.64606
2009-06-16 05:18:30 51°13.775 2°55.687 20.5456 0.060937 0.333603 1.64606
2009-06-16 05:18:34 51°13.781 2°55.681 20.5502 0.060937 0.333603 1.64606
2009-06-16 05:18:40 51°13.79 2°55.672 20.5326 0.060937 0.333609 1.64606
2009-06-16 05:18:43 51°13.795 2°55.667 20.5671 0.060937 0.333609 1.64606
2009-06-16 05:18:49 51°13.804 2°55.659 20.5589 0.060937 0.333615 1.64606
2009-06-16 05:18:54 51°13.812 2°55.651 20.5556 0.060937 0.333621 1.64606
2009-06-16 05:18:58 51°13.819 2°55.645 20.561 0.060937 0.333621 1.64606
2009-06-16 05:19:04 51°13.83 2°55.637 20.5663 0.060937 0.333633 1.64606
2009-06-16 05:19:09 51°13.839 2°55.629 20.5785 0.060937 0.333633 1.64606
2009-06-16 05:19:14 51°13.848 2°55.623 20.5762 0.060937 0.333633 1.64606
2009-06-16 05:19:19 51°13.858 2°55.615 20.5748 0.060937 0.333639 1.64606
2009-06-16 05:19:24 51°13.867 2°55.609 20.5772 0.060937 0.333644 1.64606
2009-06-16 05:19:29 51°13.876 2°55.601 20.5753 0.060937 0.333644 1.64606
2009-06-16 05:19:34 51°13.886 2°55.593 20.5785 0.060937 0.33365 1.64606
2009-06-16 05:19:39 51°13.896 2°55.585 20.5764 0.060937 0.333656 1.64606
2009-06-16 05:19:45 51°13.908 2°55.576 20.5751 0.060937 0.333656 1.64606
2009-06-16 05:19:49 51°13.916 2°55.569 20.5862 0.060937 0.333656 1.64606
2009-06-16 05:19:54 51°13.927 2°55.562 20.6061 0.060937 0.333662 1.64606
2009-06-16 05:19:59 51°13.937 2°55.554 20.5993 0.060937 0.333668 1.64606
2009-06-16 05:20:04 51°13.948 2°55.547 20.5894 0.060937 0.333674 1.64606
2009-06-16 05:20:09 51°13.958 2°55.539 20.5912 0.060937 0.333674 1.64606
2009-06-16 05:20:14 51°13.969 2°55.531 20.6087 0.060937 0.333674 1.64606
2009-06-16 05:20:19 51°13.98 2°55.524 20.5866 0.060937 0.33368 1.64606
2009-06-16 05:20:24 51°13.991 2°55.515 20.5858 0.060937 0.33368 1.64606
2009-06-16 05:20:30 51°14.004 2°55.506 20.5873 0.060937 0.33368 1.64606
2009-06-16 05:20:34 51°14.013 2°55.5 20.5957 0.060937 0.33368 1.64606
2009-06-16 05:20:39 51°14.024 2°55.491 20.5765 0.060937 0.33368 1.64606
2009-06-16 05:20:45 51°14.037 2°55.482 20.598 0.060937 0.33368 1.64606
2009-06-16 05:20:49 51°14.047 2°55.475 20.5937 0.060937 0.33368 1.64606
2009-06-16 05:20:54 51°14.058 2°55.467 20.5995 0.060937 0.33368 1.64606
2009-06-16 05:20:59 51°14.07 2°55.459 20.5847 0.060937 0.33368 1.64606
2009-06-16 05:21:04 51°14.081 2°55.45 20.6085 0.060937 0.333686 1.64606
2009-06-16 05:21:09 51°14.093 2°55.442 20.572 0.060937 0.333686 1.64606
2009-06-16 05:21:14 51°14.105 2°55.433 20.5773 0.060937 0.333686 1.64606
2009-06-16 05:21:19 51°14.116 2°55.424 20.5921 0.060937 0.333686 1.64606
2009-06-16 05:21:25 51°14.13 2°55.413 20.5903 0.060937 0.333692 1.64606
2009-06-16 05:21:29 51°14.139 2°55.406 20.6035 0.060937 0.333698 1.64606
2009-06-16 05:21:34 51°14.151 2°55.396 20.6216 0.060937 0.333698 1.64606
2009-06-16 05:21:39 51°14.163 2°55.387 20.6157 0.060937 0.333709 1.64606
2009-06-16 05:21:45 51°14.176 2°55.373 20.6116 0.060937 0.333709 1.64606
2009-06-16 05:21:49 51°14.184 2°55.364 20.5919 0.060937 0.333709 1.64606
2009-06-16 05:21:54 51°14.195 2°55.352 20.614 0.060937 0.333709 1.64606
2009-06-16 05:21:59 51°14.205 2°55.339 20.5882 0.060937 0.333709 1.64606
2009-06-16 05:22:05 51°14.218 2°55.323 20.6091 0.060937 0.333715 1.64606
2009-06-16 05:22:09 51°14.226 2°55.312 20.6073 0.060937 0.333715 1.64606
2009-06-16 05:22:14 51°14.236 2°55.297 20.6012 0.060937 0.333715 1.64606
2009-06-16 05:22:19 51°14.245 2°55.281 20.5737 0.060937 0.333715 1.64606
2009-06-16 05:22:24 51°14.255 2°55.265 20.5721 0.060937 0.333709 1.64606
2009-06-16 05:22:29 51°14.265 2°55.249 20.58 0.060937 0.333709 1.64606
2009-06-16 05:22:34 51°14.274 2°55.232 20.5998 0.060937 0.333709 1.64606
2009-06-16 05:22:39 51°14.284 2°55.215 20.5853 0.060937 0.333715 1.64606
2009-06-16 05:22:44 51°14.293 2°55.197 20.5846 0.060937 0.333715 1.64606
2009-06-16 05:22:49 51°14.302 2°55.179 20.5767 0.060937 0.333715 1.64606
2009-06-16 05:22:54 51°14.311 2°55.161 20.6053 0.060937 0.333715 1.64606
2009-06-16 05:22:59 51°14.32 2°55.143 20.5964 0.060937 0.333715 1.64606
2009-06-16 05:23:04 51°14.329 2°55.124 20.5958 0.060937 0.333715 1.64606
2009-06-16 05:23:09 51°14.339 2°55.106 20.5706 0.060937 0.333715 1.64606
2009-06-16 05:23:14 51°14.348 2°55.087 20.6005 0.060937 0.333715 1.64606
2009-06-16 05:23:19 51°14.358 2°55.068 20.5757 0.060937 0.333715 1.64606
2009-06-16 05:23:24 51°14.367 2°55.049 20.5597 0.060937 0.333721 1.64606
2009-06-16 05:23:29 51°14.376 2°55.029 20.5711 0.060937 0.333715 1.64606
2009-06-16 05:23:34 51°14.387 2°55.011 20.5968 0.060937 0.333709 1.64606
2009-06-16 05:23:39 51°14.397 2°54.993 20.6078 0.060937 0.333721 1.64606
2009-06-16 05:23:44 51°14.408 2°54.975 20.5726 0.060937 0.333721 1.64606
2009-06-16 05:23:49 51°14.418 2°54.957 20.5536 0.060937 0.333721 1.64606
2009-06-16 05:23:54 51°14.428 2°54.938 20.5909 0.060937 0.333715 1.64606
2009-06-16 05:23:59 51°14.439 2°54.92 20.6046 0.060937 0.333721 1.64606
2009-06-16 05:24:04 51°14.449 2°54.902 20.6008 0.060937 0.333727 1.64606
2009-06-16 05:24:09 51°14.458 2°54.884 20.5581 0.060937 0.333727 1.64606
2009-06-16 05:24:14 51°14.467 2°54.865 20.5859 0.060937 0.333727 1.64606
2009-06-16 05:24:19 51°14.476 2°54.845 20.5697 0.060937 0.333733 1.64606
2009-06-16 05:24:25 51°14.486 2°54.822 20.5344 0.060937 0.333727 1.64606
2009-06-16 05:24:29 51°14.493 2°54.806 20.5743 0.060937 0.333733 1.64606
2009-06-16 05:24:34 51°14.501 2°54.786 20.554 0.060937 0.333733 1.64606
2009-06-16 05:24:39 51°14.508 2°54.766 20.5423 0.060937 0.333727 1.64606
2009-06-16 05:24:44 51°14.516 2°54.746 20.5702 0.060937 0.333727 1.64606
2009-06-16 05:24:49 51°14.524 2°54.726 20.5882 0.060937 0.333727 1.680884
2009-06-16 05:24:54 51°14.532 2°54.706 20.557 0.060937 0.333733 1.680884
2009-06-16 05:24:59 51°14.539 2°54.686 20.5607 0.060937 0.333739 1.64606
2009-06-16 05:25:04 51°14.546 2°54.665 20.576 0.060937 0.333739 1.64606
2009-06-16 05:25:09 51°14.553 2°54.645 20.5551 0.060937 0.333739 1.64606
2009-06-16 05:25:14 51°14.56 2°54.624 20.5508 0.060937 0.333739 1.64606
2009-06-16 05:25:19 51°14.568 2°54.603 20.567 0.060937 0.333739 1.64606
2009-06-16 05:25:25 51°14.576 2°54.579 20.5754 0.060937 0.333739 1.680884
2009-06-16 05:25:29 51°14.582 2°54.562 20.5557 0.060937 0.333739 1.64606
2009-06-16 05:25:34 51°14.589 2°54.541 20.5606 0.060937 0.333739 1.680884
2009-06-16 05:25:39 51°14.596 2°54.521 20.5414 0.060937 0.333739 1.64606
2009-06-16 05:25:45 51°14.606 2°54.497 20.5425 0.060937 0.333739 1.64606
2009-06-16 05:25:49 51°14.613 2°54.481 20.5255 0.060937 0.333733 1.64606
2009-06-16 05:25:54 51°14.622 2°54.462 20.5555 0.060937 0.333739 1.680884
2009-06-16 05:25:59 51°14.631 2°54.443 20.5221 0.060937 0.333739 1.64606
2009-06-16 05:26:05 51°14.643 2°54.422 20.5197 0.060937 0.333733 1.64606
2009-06-16 05:26:09 51°14.652 2°54.409 20.5563 0.060937 0.333733 1.64606
2009-06-16 05:26:14 51°14.664 2°54.393 20.5294 0.060937 0.333733 1.64606
2009-06-16 05:26:19 51°14.677 2°54.38 20.5689 0.060937 0.333733 1.64606
2009-06-16 05:26:25 51°14.693 2°54.366 20.5537 0.060937 0.333739 1.64606
2009-06-16 05:26:29 51°14.704 2°54.357 20.5737 0.060937 0.333739 1.680884
2009-06-16 05:26:34 51°14.718 2°54.346 20.5547 0.060937 0.333751 1.64606
2009-06-16 05:26:39 51°14.733 2°54.336 20.5384 0.060937 0.333751 1.64606
2009-06-16 05:26:45 51°14.75 2°54.324 20.5553 0.060937 0.333751 1.64606
2009-06-16 05:26:49 51°14.762 2°54.317 20.5496 0.060937 0.333751 1.64606
2009-06-16 05:26:54 51°14.777 2°54.309 20.5752 0.060937 0.333745 1.64606
2009-06-16 05:26:59 51°14.793 2°54.301 20.5963 0.060937 0.333751 1.64606
2009-06-16 05:27:05 51°14.811 2°54.29 20.6215 0.060937 0.333745 1.64606
2009-06-16 05:27:10 51°14.825 2°54.281 20.6175 0.060937 0.333763 1.64606
2009-06-16 05:27:15 51°14.837 2°54.267 20.6094 0.060937 0.333763 1.64606
2009-06-16 05:27:19 51°14.845 2°54.255 20.6041 0.060937 0.333763 1.680884
2009-06-16 05:27:25 51°14.856 2°54.236 20.5839 0.060937 0.333769 1.64606
2009-06-16 05:27:30 51°14.864 2°54.218 20.5404 0.060937 0.333769 1.64606
2009-06-16 05:27:35 51°14.871 2°54.198 20.5407 0.060937 0.333757 1.64606
2009-06-16 05:27:39 51°14.876 2°54.182 20.543 0.060937 0.333757 1.64606
2009-06-16 05:27:45 51°14.883 2°54.158 20.5208 0.060937 0.333757 1.64606
2009-06-16 05:27:50 51°14.89 2°54.137 20.5349 0.060937 0.333751 1.64606
2009-06-16 05:27:55 51°14.896 2°54.116 20.5603 0.060937 0.333745 1.64606
2009-06-16 05:27:59 51°14.902 2°54.1 20.5646 0.060937 0.333745 1.64606
2009-06-16 05:28:05 51°14.91 2°54.075 20.5284 0.060937 0.333751 1.64606
2009-06-16 05:28:10 51°14.918 2°54.055 20.5421 0.060937 0.333751 1.64606
2009-06-16 05:28:15 51°14.925 2°54.034 20.5536 0.060937 0.333751 1.64606
2009-06-16 05:28:19 51°14.932 2°54.018 20.5704 0.060937 0.333751 1.680884
2009-06-16 05:28:25 51°14.943 2°53.995 20.5209 0.060937 0.333757 1.64606
2009-06-16 05:28:30 51°14.951 2°53.976 20.5269 0.060937 0.333757 1.64606
2009-06-16 05:28:35 51°14.96 2°53.957 20.5271 0.060937 0.333757 1.64606
2009-06-16 05:28:40 51°14.97 2°53.939 20.4994 0.060937 0.333757 1.680884
2009-06-16 05:28:45 51°14.981 2°53.922 20.5486 0.060937 0.333757 1.680884
2009-06-16 05:28:50 51°14.993 2°53.906 20.5229 0.060937 0.333751 1.64606
2009-06-16 05:28:55 51°15.005 2°53.891 20.5456 0.060937 0.333751 1.64606
2009-06-16 05:28:59 51°15.015 2°53.88 20.5159 0.060937 0.333745 1.64606
2009-06-16 05:29:05 51°15.031 2°53.864 20.5391 0.060937 0.333745 1.64606
2009-06-16 05:29:10 51°15.045 2°53.854 20.548 0.060937 0.333739 1.64606
2009-06-16 05:29:15 51°15.059 2°53.844 20.5638 0.060937 0.333739 1.64606
2009-06-16 05:29:19 51°15.071 2°53.838 20.5435 0.060937 0.333739 1.64606
2009-06-16 05:29:24 51°15.085 2°53.828 20.549 0.060937 0.333739 1.680884
2009-06-16 05:29:30 51°15.103 2°53.817 20.5664 0.060937 0.333745 1.680884
2009-06-16 05:29:35 51°15.117 2°53.808 20.5479 0.060937 0.333739 1.64606
2009-06-16 05:29:39 51°15.129 2°53.801 20.5584 0.060937 0.333739 1.64606
2009-06-16 05:29:44 51°15.144 2°53.792 20.5503 0.060937 0.333739 1.64606
2009-06-16 05:29:50 51°15.162 2°53.781 20.5657 0.060937 0.333739 1.64606
2009-06-16 05:29:55 51°15.177 2°53.772 20.5421 0.060937 0.333745 1.64606
2009-06-16 05:29:59 51°15.188 2°53.764 20.5514 0.060937 0.333739 1.64606
2009-06-16 05:30:05 51°15.206 2°53.753 20.5551 0.060937 0.333739 1.680884
2009-06-16 05:30:09 51°15.218 2°53.746 20.5524 0.060937 0.333745 1.64606
2009-06-16 05:30:15 51°15.236 2°53.735 20.5363 0.060937 0.333745 1.64606
2009-06-16 05:30:19 51°15.248 2°53.728 20.551 0.060937 0.333745 1.680884
2009-06-16 05:30:25 51°15.265 2°53.717 20.5532 0.060937 0.333745 1.64606
2009-06-16 05:30:30 51°15.28 2°53.708 20.5412 0.060937 0.333745 1.64606
2009-06-16 05:30:34 51°15.292 2°53.701 20.524 0.060937 0.333739 1.64606
2009-06-16 05:30:39 51°15.307 2°53.691 20.5491 0.060937 0.333739 1.64606
2009-06-16 05:30:45 51°15.324 2°53.68 20.5188 0.060937 0.333739 1.64606
2009-06-16 05:30:50 51°15.339 2°53.67 20.5475 0.060937 0.333733 1.64606
2009-06-16 05:30:55 51°15.354 2°53.661 20.5327 0.060937 0.333727 1.64606
2009-06-16 05:31:00 51°15.369 2°53.652 20.5369 0.060937 0.333721 1.64606
2009-06-16 05:31:05 51°15.383 2°53.643 20.5252 0.060937 0.333721 1.64606
2009-06-16 05:31:10 51°15.398 2°53.634 20.5402 0.060937 0.333721 1.64606
2009-06-16 05:31:15 51°15.413 2°53.625 20.5521 0.060937 0.333721 1.64606
2009-06-16 05:31:19 51°15.425 2°53.618 20.5314 0.060937 0.333721 1.64606
2009-06-16 05:31:25 51°15.443 2°53.606 20.5122 0.060937 0.333721 1.64606
2009-06-16 05:31:30 51°15.458 2°53.597 20.5216 0.060937 0.333727 1.64606
2009-06-16 05:31:35 51°15.473 2°53.588 20.5521 0.060937 0.333721 1.64606
2009-06-16 05:31:39 51°15.485 2°53.582 20.5449 0.060937 0.333721 1.64606
2009-06-16 05:31:44 51°15.5 2°53.573 20.55 0.060937 0.333721 1.64606
2009-06-16 05:31:50 51°15.517 2°53.562 20.5304 0.060937 0.333727 1.680884
2009-06-16 05:31:55 51°15.532 2°53.553 20.522 0.060937 0.333721 1.64606
2009-06-16 05:31:59 51°15.544 2°53.546 20.5478 0.060937 0.333715 1.64606
2009-06-16 05:32:05 51°15.562 2°53.536 20.5223 0.060937 0.333715 1.64606
2009-06-16 05:32:10 51°15.577 2°53.527 20.5149 0.060937 0.333715 1.64606
2009-06-16 05:32:15 51°15.592 2°53.518 20.5302 0.060937 0.333715 1.64606
2009-06-16 05:32:19 51°15.604 2°53.511 20.5262 0.060937 0.333709 1.64606
2009-06-16 05:32:25 51°15.622 2°53.501 20.5462 0.060937 0.333709 1.64606
2009-06-16 05:32:30 51°15.637 2°53.492 20.5318 0.060937 0.333709 1.64606
2009-06-16 05:32:35 51°15.652 2°53.483 20.5435 0.060937 0.333704 1.64606
2009-06-16 05:32:39 51°15.664 2°53.477 20.5335 0.060937 0.333704 1.64606
2009-06-16 05:32:45 51°15.682 2°53.468 20.5232 0.060937 0.333704 1.64606
2009-06-16 05:32:50 51°15.698 2°53.461 20.5455 0.060937 0.333704 1.64606
2009-06-16 05:32:54 51°15.71 2°53.455 20.5299 0.060937 0.333698 1.64606
2009-06-16 05:33:00 51°15.729 2°53.447 20.5322 0.060937 0.333698 1.64606
2009-06-16 05:33:05 51°15.744 2°53.44 20.5334 0.060937 0.333698 1.64606
2009-06-16 05:33:10 51°15.76 2°53.433 20.5367 0.060937 0.333692 1.64606
2009-06-16 05:33:15 51°15.775 2°53.427 20.5284 0.060937 0.333692 1.64606
2009-06-16 05:33:20 51°15.791 2°53.42 20.5431 0.060937 0.333692 1.64606
2009-06-16 05:33:25 51°15.807 2°53.414 20.5523 0.060937 0.333692 1.64606
2009-06-16 05:33:30 51°15.822 2°53.408 20.5357 0.060937 0.333692 1.64606
2009-06-16 05:33:35 51°15.838 2°53.401 20.5455 0.060937 0.333686 1.64606
2009-06-16 05:33:39 51°15.85 2°53.396 20.5338 0.060937 0.333686 1.64606
2009-06-16 05:33:45 51°15.869 2°53.388 20.5466 0.060937 0.333686 1.64606
2009-06-16 05:33:50 51°15.885 2°53.381 20.5314 0.060937 0.333686 1.64606
2009-06-16 05:33:55 51°15.9 2°53.375 20.5293 0.060937 0.33368 1.64606
2009-06-16 05:33:59 51°15.913 2°53.37 20.546 0.060937 0.33368 1.680884
2009-06-16 05:34:04 51°15.929 2°53.364 20.5467 0.060937 0.333674 1.64606
2009-06-16 05:34:10 51°15.947 2°53.356 20.5525 0.060937 0.333674 1.64606
2009-06-16 05:34:15 51°15.963 2°53.349 20.538 0.060937 0.333674 1.64606
2009-06-16 05:34:19 51°15.976 2°53.344 20.5467 0.060937 0.333674 1.64606
2009-06-16 05:34:25 51°15.994 2°53.337 20.532 0.060937 0.333668 1.64606
2009-06-16 05:34:30 51°16.01 2°53.331 20.5345 0.060937 0.333668 1.64606
2009-06-16 05:34:35 51°16.026 2°53.324 20.5291 0.060937 0.333668 1.64606
2009-06-16 05:34:39 51°16.038 2°53.319 20.5402 0.060937 0.333662 1.64606
2009-06-16 05:34:45 51°16.057 2°53.311 20.5329 0.060937 0.333662 1.64606
2009-06-16 05:34:50 51°16.073 2°53.305 20.5433 0.060937 0.333656 1.64606
2009-06-16 05:34:55 51°16.089 2°53.299 20.5504 0.060937 0.333656 1.64606
2009-06-16 05:34:59 51°16.101 2°53.294 20.5466 0.060937 0.33365 1.64606
2009-06-16 05:35:05 51°16.12 2°53.286 20.5377 0.060937 0.333644 1.64606
2009-06-16 05:35:10 51°16.136 2°53.281 20.5314 0.060937 0.333644 1.64606
2009-06-16 05:35:15 51°16.151 2°53.274 20.527 0.060937 0.333644 1.64606
2009-06-16 05:35:19 51°16.164 2°53.269 20.5531 0.060937 0.333639 1.64606
2009-06-16 05:35:25 51°16.182 2°53.262 20.5291 0.060937 0.333639 1.64606
2009-06-16 05:35:30 51°16.198 2°53.256 20.5571 0.060937 0.333633 1.64606
2009-06-16 05:35:35 51°16.214 2°53.25 20.55 0.060937 0.333633 1.64606
2009-06-16 05:35:39 51°16.226 2°53.244 20.5522 0.060937 0.333633 1.64606
2009-06-16 05:35:45 51°16.245 2°53.237 20.543 0.060937 0.333633 1.64606
2009-06-16 05:35:50 51°16.261 2°53.231 20.5387 0.060937 0.333621 1.64606
2009-06-16 05:35:55 51°16.277 2°53.224 20.5409 0.060937 0.333621 1.64606
2009-06-16 05:35:59 51°16.289 2°53.219 20.5437 0.060937 0.333621 1.64606
2009-06-16 05:36:05 51°16.308 2°53.212 20.5534 0.060937 0.333615 1.64606
2009-06-16 05:36:10 51°16.324 2°53.205 20.5389 0.060937 0.333609 1.64606
2009-06-16 05:36:15 51°16.34 2°53.199 20.5562 0.060937 0.333609 1.64606
2009-06-16 05:36:19 51°16.352 2°53.195 20.549 0.060937 0.333609 1.64606
2009-06-16 05:36:25 51°16.371 2°53.188 20.5444 0.060937 0.333603 1.64606
2009-06-16 05:36:30 51°16.387 2°53.181 20.535 0.060937 0.333603 1.64606
2009-06-16 05:36:35 51°16.403 2°53.175 20.5511 0.060937 0.333591 1.64606
2009-06-16 05:36:39 51°16.416 2°53.171 20.5346 0.060937 0.333591 1.64606
2009-06-16 05:36:45 51°16.435 2°53.165 20.5551 0.060937 0.333591 1.64606
2009-06-16 05:36:50 51°16.451 2°53.16 20.5558 0.060937 0.333591 1.64606
2009-06-16 05:36:55 51°16.467 2°53.155 20.534 0.060937 0.333585 1.64606
2009-06-16 05:36:59 51°16.479 2°53.151 20.5629 0.060937 0.333585 1.64606
2009-06-16 05:37:05 51°16.499 2°53.146 20.5498 0.060937 0.333579 1.64606
2009-06-16 05:37:10 51°16.515 2°53.141 20.5293 0.060937 0.333579 1.64606
2009-06-16 05:37:15 51°16.531 2°53.136 20.562 0.060937 0.333579 1.64606
2009-06-16 05:37:19 51°16.544 2°53.133 20.552 0.060937 0.333574 1.64606
2009-06-16 05:37:25 51°16.563 2°53.127 20.5563 0.060937 0.333568 1.64606
2009-06-16 05:37:30 51°16.579 2°53.123 20.5646 0.060937 0.333562 1.64606
2009-06-16 05:37:35 51°16.595 2°53.118 20.5662 0.060937 0.333562 1.64606
2009-06-16 05:37:39 51°16.608 2°53.115 20.5438 0.060937 0.333562 1.64606
2009-06-16 05:37:45 51°16.627 2°53.11 20.5583 0.060937 0.333562 1.64606
2009-06-16 05:37:50 51°16.643 2°53.105 20.5746 0.060937 0.333556 1.64606
2009-06-16 05:37:55 51°16.66 2°53.101 20.545 0.060937 0.333556 1.64606
2009-06-16 05:37:59 51°16.672 2°53.097 20.5631 0.060937 0.333544 1.64606
2009-06-16 05:38:05 51°16.692 2°53.093 20.554 0.060937 0.333544 1.64606
2009-06-16 05:38:10 51°16.708 2°53.088 20.5532 0.060937 0.333538 1.64606
2009-06-16 05:38:15 51°16.724 2°53.085 20.5603 0.060937 0.333538 1.64606
2009-06-16 05:38:19 51°16.737 2°53.081 20.5623 0.060937 0.333538 1.611236
2009-06-16 05:38:25 51°16.756 2°53.077 20.5699 0.060937 0.333532 1.64606
2009-06-16 05:38:30 51°16.772 2°53.073 20.5528 0.060937 0.333532 1.64606
2009-06-16 05:38:35 51°16.788 2°53.067 20.5668 0.060937 0.333526 1.64606
2009-06-16 05:38:39 51°16.801 2°53.064 20.5414 0.060937 0.33352 1.64606
2009-06-16 05:38:44 51°16.817 2°53.059 20.5577 0.060937 0.33352 1.64606
2009-06-16 05:38:50 51°16.836 2°53.054 20.5629 0.060937 0.333514 1.64606
2009-06-16 05:38:55 51°16.852 2°53.05 20.5598 0.060937 0.333509 1.64606
2009-06-16 05:38:59 51°16.865 2°53.046 20.5496 0.060937 0.333509 1.64606
2009-06-16 05:39:04 51°16.88 2°53.042 20.5654 0.060937 0.333503 1.64606
2009-06-16 05:39:10 51°16.899 2°53.036 20.5738 0.060937 0.333503 1.64606
2009-06-16 05:39:15 51°16.915 2°53.031 20.5553 0.060937 0.333503 1.64606
2009-06-16 05:39:19 51°16.928 2°53.027 20.5761 0.060937 0.333485 1.64606
2009-06-16 05:39:25 51°16.947 2°53.022 20.567 0.060937 0.333485 1.64606
2009-06-16 05:39:30 51°16.963 2°53.018 20.5655 0.060937 0.333479 1.611236
2009-06-16 05:39:35 51°16.979 2°53.013 20.5547 0.060937 0.333479 1.611236
2009-06-16 05:39:39 51°16.992 2°53.009 20.5513 0.060937 0.333473 1.64606
2009-06-16 05:39:45 51°17.011 2°53.003 20.5714 0.060937 0.333473 1.64606
2009-06-16 05:39:49 51°17.023 2°52.999 20.5757 0.060937 0.333467 1.64606
2009-06-16 05:39:55 51°17.043 2°52.994 20.5768 0.060937 0.333461 1.64606
2009-06-16 05:39:59 51°17.055 2°52.99 20.5626 0.060937 0.333461 1.64606
2009-06-16 05:40:05 51°17.074 2°52.985 20.578 0.060937 0.333461 1.64606
2009-06-16 05:40:10 51°17.09 2°52.98 20.5507 0.060937 0.333455 1.64606
2009-06-16 05:40:15 51°17.106 2°52.975 20.5748 0.060937 0.333455 1.64606
2009-06-16 05:40:19 51°17.119 2°52.971 20.5568 0.060937 0.333455 1.64606
2009-06-16 05:40:25 51°17.138 2°52.965 20.5651 0.060937 0.33345 1.64606
2009-06-16 05:40:30 51°17.154 2°52.96 20.5746 0.060937 0.33345 1.611236
2009-06-16 05:40:35 51°17.17 2°52.955 20.5694 0.060937 0.333444 1.64606
2009-06-16 05:40:39 51°17.183 2°52.952 20.562 0.060937 0.333438 1.64606
2009-06-16 05:40:44 51°17.199 2°52.948 20.5785 0.060937 0.333438 1.64606
2009-06-16 05:40:50 51°17.219 2°52.945 20.5655 0.060937 0.333438 1.64606
2009-06-16 05:40:55 51°17.235 2°52.944 20.5531 0.060937 0.333426 1.64606
2009-06-16 05:40:59 51°17.248 2°52.944 20.5642 0.060937 0.33342 1.64606
2009-06-16 05:41:04 51°17.265 2°52.946 20.5744 0.060937 0.33342 1.64606
2009-06-16 05:41:10 51°17.285 2°52.949 20.5739 0.060937 0.33342 1.611236
2009-06-16 05:41:15 51°17.301 2°52.954 20.5596 0.060937 0.33342 1.611236
2009-06-16 05:41:19 51°17.314 2°52.957 20.58 0.060937 0.33342 1.611236
2009-06-16 05:41:25 51°17.333 2°52.966 20.5812 0.060937 0.33342 1.64606
2009-06-16 05:41:29 51°17.346 2°52.971 20.5748 0.060937 0.333414 1.64606
2009-06-16 05:41:35 51°17.365 2°52.983 20.5711 0.060937 0.333414 1.611236
2009-06-16 05:41:39 51°17.378 2°52.991 20.5943 0.06104 0.334 1.611236
2009-06-16 05:41:45 51°17.396 2°53.005 20.5538 0.06104 0.334 1.611236
2009-06-16 05:41:50 51°17.412 2°53.014 20.5894 0.060937 0.333414 1.611236
2009-06-16 05:41:55 51°17.427 2°53.028 20.5887 0.06104 0.333994 1.64606
2009-06-16 05:41:59 51°17.439 2°53.038 20.5642 0.06104 0.333994 1.611236
2009-06-16 05:42:05 51°17.457 2°53.053 20.5909 0.06104 0.333982 1.611236
2009-06-16 05:42:10 51°17.471 2°53.068 20.56 0.06104 0.333976 1.64606
2009-06-16 05:42:15 51°17.486 2°53.082 20.5759 0.06104 0.333976 1.64606
2009-06-16 05:42:19 51°17.497 2°53.095 20.5874 0.06104 0.333976 1.611236
2009-06-16 05:42:25 51°17.514 2°53.114 20.5694 0.06104 0.33397 1.611236
2009-06-16 05:42:30 51°17.529 2°53.13 20.5876 0.06104 0.33397 1.64606
2009-06-16 05:42:35 51°17.542 2°53.147 20.5775 0.06104 0.33397 1.64606
2009-06-16 05:42:39 51°17.554 2°53.159 20.5841 0.06104 0.333964 1.611236
2009-06-16 05:42:45 51°17.57 2°53.181 20.5955 0.06104 0.333964 1.611236
2009-06-16 05:42:50 51°17.584 2°53.197 20.5898 0.06104 0.333964 1.611236
2009-06-16 05:42:55 51°17.597 2°53.215 20.5657 0.06104 0.333964 1.64606
2009-06-16 05:42:59 51°17.609 2°53.227 20.589 0.06104 0.333953 1.64606
2009-06-16 05:43:04 51°17.622 2°53.246 20.5713 0.06104 0.333959 1.611236
2009-06-16 05:43:10 51°17.638 2°53.266 20.5884 0.06104 0.333953 1.64606
2009-06-16 05:43:15 51°17.652 2°53.283 20.5823 0.06104 0.333953 1.64606
2009-06-16 05:43:19 51°17.663 2°53.298 20.5869 0.06104 0.333953 1.611236
2009-06-16 05:43:25 51°17.679 2°53.318 20.5719 0.06104 0.333947 1.64606
2009-06-16 05:43:30 51°17.693 2°53.336 20.5988 0.06104 0.333941 1.611236
2009-06-16 05:43:35 51°17.706 2°53.352 20.5902 0.06104 0.333941 1.611236
2009-06-16 05:43:39 51°17.718 2°53.366 20.5757 0.06104 0.333935 1.611236
2009-06-16 05:43:45 51°17.734 2°53.386 20.6023 0.06104 0.333935 1.611236
2009-06-16 05:43:50 51°17.748 2°53.403 20.5764 0.06104 0.333929 1.611236
2009-06-16 05:43:55 51°17.762 2°53.42 20.5921 0.06104 0.333929 1.611236
2009-06-16 05:43:59 51°17.773 2°53.433 20.5962 0.06104 0.333923 1.611236
2009-06-16 05:44:05 51°17.789 2°53.453 20.5982 0.06104 0.333917 1.64606
2009-06-16 05:44:10 51°17.803 2°53.469 20.5982 0.06104 0.333917 1.611236
2009-06-16 05:44:15 51°17.817 2°53.487 20.5981 0.06104 0.333917 1.611236
2009-06-16 05:44:20 51°17.831 2°53.503 20.5877 0.06104 0.333917 1.64606
2009-06-16 05:44:25 51°17.845 2°53.519 20.595 0.06104 0.333911 1.611236
2009-06-16 05:44:30 51°17.859 2°53.535 20.5921 0.06104 0.333911 1.611236
2009-06-16 05:44:35 51°17.873 2°53.552 20.6055 0.06104 0.333911 1.611236
2009-06-16 05:44:40 51°17.887 2°53.567 20.5961 0.06104 0.333905 1.611236
2009-06-16 05:44:45 51°17.901 2°53.583 20.58 0.06104 0.333905 1.611236
2009-06-16 05:44:50 51°17.916 2°53.6 20.602 0.06104 0.333905 1.64606
2009-06-16 05:44:55 51°17.93 2°53.616 20.6007 0.06104 0.333899 1.64606
2009-06-16 05:44:59 51°17.941 2°53.629 20.6031 0.06104 0.333894 1.611236
2009-06-16 05:45:05 51°17.958 2°53.649 20.5994 0.06104 0.333899 1.611236
2009-06-16 05:45:10 51°17.972 2°53.664 20.592 0.06104 0.333894 1.64606
2009-06-16 05:45:15 51°17.986 2°53.68 20.6154 0.06104 0.333894 1.64606
2009-06-16 05:45:19 51°17.998 2°53.693 20.6184 0.06104 0.333888 1.611236
2009-06-16 05:45:24 51°18.012 2°53.709 20.5915 0.06104 0.333894 1.611236
2009-06-16 05:45:30 51°18.029 2°53.727 20.6051 0.06104 0.333882 1.611236
2009-06-16 05:45:35 51°18.044 2°53.743 20.6167 0.06104 0.333876 1.611236
2009-06-16 05:45:39 51°18.055 2°53.756 20.5911 0.06104 0.333882 1.611236
2009-06-16 05:45:45 51°18.072 2°53.774 20.5985 0.06104 0.333882 1.611236
2009-06-16 05:45:50 51°18.086 2°53.79 20.6153 0.06104 0.333876 1.611236
2009-06-16 05:45:55 51°18.101 2°53.806 20.6151 0.06104 0.33387 1.611236
2009-06-16 05:45:59 51°18.112 2°53.819 20.6082 0.06104 0.333876 1.611236
2009-06-16 05:46:05 51°18.129 2°53.838 20.5944 0.06104 0.333876 1.611236
2009-06-16 05:46:10 51°18.144 2°53.853 20.6044 0.06104 0.333864 1.611236
2009-06-16 05:46:15 51°18.158 2°53.868 20.6175 0.06104 0.333864 1.611236
2009-06-16 05:46:19 51°18.169 2°53.881 20.596 0.06104 0.33387 1.611236
2009-06-16 05:46:25 51°18.186 2°53.899 20.602 0.06104 0.333858 1.611236
2009-06-16 05:46:30 51°18.201 2°53.915 20.6112 0.06104 0.333858 1.611236
2009-06-16 05:46:35 51°18.215 2°53.931 20.6154 0.06104 0.333852 1.611236
2009-06-16 05:46:40 51°18.23 2°53.947 20.6043 0.06104 0.333858 1.611236
2009-06-16 05:46:45 51°18.244 2°53.962 20.6083 0.06104 0.333858 1.611236
2009-06-16 05:46:50 51°18.258 2°53.978 20.6136 0.06104 0.333852 1.611236
2009-06-16 05:46:55 51°18.272 2°53.994 20.6039 0.06104 0.333852 1.611236
2009-06-16 05:46:59 51°18.284 2°54.006 20.6154 0.06104 0.333846 1.611236
2009-06-16 05:47:05 51°18.301 2°54.025 20.6179 0.06104 0.33384 1.611236
2009-06-16 05:47:10 51°18.316 2°54.04 20.6079 0.06104 0.333834 1.611236
2009-06-16 05:47:15 51°18.33 2°54.056 20.6234 0.06104 0.333834 1.611236
2009-06-16 05:47:19 51°18.341 2°54.07 20.6029 0.06104 0.33384 1.611236
2009-06-16 05:47:24 51°18.356 2°54.084 20.6105 0.06104 0.333834 1.611236
2009-06-16 05:47:30 51°18.373 2°54.104 20.6053 0.06104 0.333834 1.64606
2009-06-16 05:47:35 51°18.387 2°54.119 20.6156 0.06104 0.333829 1.611236
2009-06-16 05:47:39 51°18.399 2°54.131 20.6213 0.06104 0.333823 1.611236
2009-06-16 05:47:45 51°18.416 2°54.151 20.6272 0.06104 0.333823 1.611236
2009-06-16 05:47:50 51°18.43 2°54.166 20.6061 0.06104 0.333823 1.611236
2009-06-16 05:47:55 51°18.444 2°54.183 20.6246 0.06104 0.333823 1.611236
2009-06-16 05:47:59 51°18.456 2°54.194 20.6115 0.06104 0.333811 1.611236
2009-06-16 05:48:05 51°18.473 2°54.214 20.618 0.06104 0.333817 1.611236
2009-06-16 05:48:10 51°18.488 2°54.229 20.6209 0.06104 0.333811 1.611236
2009-06-16 05:48:15 51°18.502 2°54.244 20.6317 0.06104 0.333811 1.611236
2009-06-16 05:48:19 51°18.514 2°54.257 20.6037 0.06104 0.333811 1.611236
2009-06-16 05:48:25 51°18.531 2°54.275 20.6268 0.06104 0.333805 1.611236
2009-06-16 05:48:30 51°18.546 2°54.291 20.6279 0.06104 0.333799 1.611236
2009-06-16 05:48:35 51°18.56 2°54.307 20.6118 0.06104 0.333799 1.611236
2009-06-16 05:48:40 51°18.575 2°54.322 20.6186 0.06104 0.333793 1.611236
2009-06-16 05:48:45 51°18.589 2°54.338 20.6359 0.06104 0.333793 1.611236
2009-06-16 05:48:50 51°18.603 2°54.354 20.6211 0.06104 0.333793 1.611236
2009-06-16 05:48:55 51°18.618 2°54.369 20.6262 0.06104 0.333793 1.611236
2009-06-16 05:48:59 51°18.629 2°54.382 20.6285 0.06104 0.333787 1.611236
2009-06-16 05:49:05 51°18.647 2°54.401 20.6309 0.06104 0.333781 1.611236
2009-06-16 05:49:10 51°18.661 2°54.417 20.6228 0.06104 0.333775 1.611236
2009-06-16 05:49:15 51°18.675 2°54.433 20.6359 0.06104 0.333775 1.611236
2009-06-16 05:49:19 51°18.687 2°54.446 20.6075 0.06104 0.333781 1.611236
2009-06-16 05:49:25 51°18.704 2°54.463 20.6355 0.06104 0.333764 1.611236
2009-06-16 05:49:30 51°18.718 2°54.48 20.6209 0.06104 0.333769 1.611236
2009-06-16 05:49:35 51°18.733 2°54.495 20.6232 0.06104 0.333769 1.611236
2009-06-16 05:49:39 51°18.744 2°54.508 20.6238 0.06104 0.333764 1.611236
2009-06-16 05:49:45 51°18.762 2°54.526 20.6466 0.06104 0.333764 1.611236
2009-06-16 05:49:50 51°18.776 2°54.542 20.6248 0.06104 0.333764 1.611236
2009-06-16 05:49:55 51°18.791 2°54.557 20.6421 0.06104 0.333758 1.611236
2009-06-16 05:49:59 51°18.802 2°54.569 20.6475 0.06104 0.333758 1.611236
2009-06-16 05:50:04 51°18.816 2°54.586 20.6216 0.06104 0.333752 1.611236
2009-06-16 05:50:10 51°18.834 2°54.604 20.6495 0.06104 0.333752 1.611236
2009-06-16 05:50:15 51°18.848 2°54.619 20.6471 0.06104 0.333752 1.611236
2009-06-16 05:50:19 51°18.86 2°54.631 20.6372 0.06104 0.333746 1.611236
2009-06-16 05:50:25 51°18.877 2°54.65 20.6398 0.06104 0.33374 1.611236
2009-06-16 05:50:30 51°18.891 2°54.665 20.6398 0.06104 0.333734 1.611236
2009-06-16 05:50:35 51°18.906 2°54.68 20.6541 0.06104 0.333728 1.611236
2009-06-16 05:50:39 51°18.917 2°54.693 20.6464 0.06104 0.333728 1.611236
2009-06-16 05:50:45 51°18.934 2°54.71 20.6506 0.06104 0.333728 1.611236
2009-06-16 05:50:50 51°18.948 2°54.727 20.6382 0.06104 0.333728 1.611236
2009-06-16 05:50:55 51°18.963 2°54.741 20.6319 0.06104 0.333722 1.611236
2009-06-16 05:51:00 51°18.978 2°54.757 20.6505 0.06104 0.333716 1.611236
2009-06-16 05:51:05 51°18.992 2°54.773 20.6322 0.06104 0.33371 1.611236
2009-06-16 05:51:10 51°19.007 2°54.789 20.6481 0.06104 0.333705 1.611236
2009-06-16 05:51:15 51°19.021 2°54.804 20.6407 0.06104 0.333705 1.611236
2009-06-16 05:51:20 51°19.035 2°54.82 20.6339 0.06104 0.333705 1.611236
2009-06-16 05:51:25 51°19.05 2°54.834 20.6537 0.06104 0.333699 1.611236
2009-06-16 05:51:30 51°19.065 2°54.85 20.645 0.06104 0.333705 1.611236
2009-06-16 05:51:35 51°19.079 2°54.865 20.6336 0.06104 0.333687 1.611236
2009-06-16 05:51:39 51°19.091 2°54.877 20.6573 0.06104 0.333687 1.611236
2009-06-16 05:51:45 51°19.108 2°54.896 20.6508 0.06104 0.333687 1.611236
2009-06-16 05:51:50 51°19.122 2°54.911 20.6479 0.06104 0.333681 1.611236
2009-06-16 05:51:55 51°19.136 2°54.927 20.6491 0.06104 0.333675 1.611236
2009-06-16 05:51:59 51°19.148 2°54.939 20.6497 0.06104 0.333669 1.611236
2009-06-16 05:52:05 51°19.165 2°54.957 20.6442 0.06104 0.333669 1.611236
2009-06-16 05:52:10 51°19.18 2°54.973 20.6514 0.06104 0.333657 1.611236
2009-06-16 05:52:15 51°19.194 2°54.988 20.6507 0.06104 0.333657 1.611236
2009-06-16 05:52:19 51°19.206 2°55 20.6522 0.06104 0.333657 1.611236
2009-06-16 05:52:24 51°19.22 2°55.015 20.6511 0.06104 0.333646 1.611236
2009-06-16 05:52:30 51°19.237 2°55.035 20.6445 0.06104 0.333651 1.611236
2009-06-16 05:52:35 51°19.252 2°55.049 20.6623 0.06104 0.33364 1.611236
2009-06-16 05:52:39 51°19.263 2°55.062 20.6447 0.061143 0.334219 1.611236
2009-06-16 05:52:45 51°19.281 2°55.081 20.6549 0.061143 0.334219 1.611236
2009-06-16 05:52:50 51°19.295 2°55.095 20.6602 0.061143 0.334201 1.611236
2009-06-16 05:52:55 51°19.31 2°55.111 20.6548 0.06104 0.333628 1.611236
2009-06-16 05:53:00 51°19.324 2°55.126 20.6437 0.061143 0.334195 1.611236
2009-06-16 05:53:05 51°19.339 2°55.143 20.6508 0.061143 0.334195 1.611236
2009-06-16 05:53:10 51°19.353 2°55.158 20.6536 0.061143 0.334189 1.611236
2009-06-16 05:53:15 51°19.368 2°55.173 20.6594 0.061143 0.334189 1.611236
2009-06-16 05:53:20 51°19.383 2°55.189 20.6626 0.061143 0.334184 1.611236
2009-06-16 05:53:25 51°19.398 2°55.204 20.6548 0.061143 0.334178 1.611236
2009-06-16 05:53:30 51°19.411 2°55.22 20.6668 0.061143 0.334172 1.611236
2009-06-16 05:53:35 51°19.426 2°55.235 20.6673 0.061143 0.33416 1.611236
2009-06-16 05:53:40 51°19.44 2°55.252 20.6495 0.061143 0.334166 1.611236
2009-06-16 05:53:45 51°19.455 2°55.267 20.6675 0.061143 0.334166 1.611236
2009-06-16 05:53:50 51°19.469 2°55.283 20.6623 0.061143 0.33416 1.611236
2009-06-16 05:53:55 51°19.484 2°55.298 20.6341 0.061143 0.334119 1.611236
2009-06-16 05:53:59 51°19.496 2°55.311 19.674 0.061143 0.333959 2.551485
2009-06-16 05:54:05 51°19.513 2°55.329 18.9516 0.280068 1.642395 2.307717
2009-06-16 05:54:10 51°19.527 2°55.345 18.6749 0.313732 1.852568 2.412189
2009-06-16 05:54:15 51°19.542 2°55.361 18.0949 0.313732 1.852568 2.412189
2009-06-16 05:54:19 51°19.553 2°55.373 17.7621 0.372313 2.200021 5.68565
2009-06-16 05:54:25 51°19.57 2°55.392 17.546 1.591654 10.339678 9.760064
2009-06-16 05:54:30 51°19.585 2°55.407 17.3542 1.726751 11.319526 10.247601
2009-06-16 05:54:35 51°19.599 2°55.423 17.2006 2.242809 15.146868 11.01373
2009-06-16 05:54:39 51°19.611 2°55.435 17.1444 3.528892 25.144054 10.456545
2009-06-16 05:54:45 51°19.628 2°55.454 17.0973 3.528892 25.144054 10.456545
2009-06-16 05:54:50 51°19.643 2°55.47 17.1005 3.736985 27.088187 10.526194
2009-06-16 05:54:55 51°19.657 2°55.486 16.9798 3.841277 28.26072 10.421721
2009-06-16 05:54:59 51°19.669 2°55.497 16.941 3.85787 28.646077 10.143129
2009-06-16 05:55:05 51°19.686 2°55.517 16.8986 3.875603 29.004257 9.829713
2009-06-16 05:55:10 51°19.701 2°55.531 16.8049 3.891262 29.277204 9.690416
2009-06-16 05:55:15 51°19.715 2°55.548 16.774 3.891262 29.277204 9.690416
2009-06-16 05:55:20 51°19.73 2°55.562 16.745 3.8979 29.452813 9.516296
2009-06-16 05:55:25 51°19.745 2°55.578 16.7585 3.908685 29.634522 9.446648
2009-06-16 05:55:30 51°19.759 2°55.593 16.7261 3.926626 29.860863 9.307352
2009-06-16 05:55:35 51°19.774 2°55.609 16.6924 3.941455 30.054929 9.481472
2009-06-16 05:55:40 51°19.789 2°55.624 16.658 3.951204 30.194114 9.411824
2009-06-16 05:55:45 51°19.803 2°55.64 16.6461 3.951204 30.194114 9.411824
2009-06-16 05:55:50 51°19.818 2°55.655 16.6368 3.960123 30.325597 9.411824
2009-06-16 05:55:55 51°19.832 2°55.672 16.6909 3.968213 30.434692 9.411824
2009-06-16 05:56:00 51°19.847 2°55.686 16.6371 3.974747 30.527749 9.307352
2009-06-16 05:56:05 51°19.861 2°55.702 16.6071 3.981903 30.617176 9.899361
2009-06-16 05:56:10 51°19.876 2°55.717 16.574 3.985845 30.682312 9.168055
2009-06-16 05:56:15 51°19.89 2°55.733 16.6057 3.985845 30.682312 9.168055
2009-06-16 05:56:19 51°19.902 2°55.745 16.6086 3.986364 30.710192 9.133231
2009-06-16 05:56:25 51°19.919 2°55.764 16.5724 3.985949 30.719598 9.098407
2009-06-16 05:56:30 51°19.933 2°55.78 16.6249 3.984912 30.717491 9.098407
2009-06-16 05:56:35 51°19.948 2°55.795 16.5691 3.993624 30.807791 9.098407
2009-06-16 05:56:39 51°19.96 2°55.808 16.5528 3.995698 30.844861 8.959111
2009-06-16 05:56:45 51°19.977 2°55.826 16.534 3.995698 30.844861 8.959111
2009-06-16 05:56:50 51°19.992 2°55.842 16.525 3.997876 30.875406 9.133231
2009-06-16 05:56:55 51°20.006 2°55.857 16.5026 3.994454 30.854669 9.237704
2009-06-16 05:56:59 51°20.018 2°55.868 16.5119 3.998188 30.893647 8.924287
2009-06-16 05:57:04 51°20.032 2°55.884 16.5232 3.999018 30.905775 8.819815
2009-06-16 05:57:10 51°20.05 2°55.902 16.4949 4.004307 30.95881 8.924287
2009-06-16 05:57:15 51°20.065 2°55.917 16.4986 4.004307 30.95881 8.924287
2009-06-16 05:57:19 51°20.076 2°55.93 16.478 4.011567 31.037007 8.819815
2009-06-16 05:57:25 51°20.094 2°55.948 16.4693 4.018101 31.10527 8.889463
2009-06-16 05:57:30 51°20.108 2°55.964 16.4662 4.020591 31.143097 8.959111
2009-06-16 05:57:35 51°20.123 2°55.978 16.48 4.020072 31.146175 8.576047
2009-06-16 05:57:40 51°20.137 2°55.995 16.4582 4.023599 31.184186 8.541223
2009-06-16 05:57:45 51°20.152 2°56.01 16.4415 4.023599 31.184186 8.541223
2009-06-16 05:57:50 51°20.166 2°56.026 16.4431 4.024429 31.198292 8.819815
2009-06-16 05:57:55 51°20.181 2°56.041 16.4395 4.025881 31.220941 8.506398
2009-06-16 05:58:00 51°20.195 2°56.057 16.4492 4.027541 31.240341 8.819815
2009-06-16 05:58:05 51°20.21 2°56.072 16.4375 4.029096 31.261382 8.819815
2009-06-16 05:58:10 51°20.224 2°56.088 16.4265 4.03003 31.275152 8.576047
2009-06-16 05:58:15 51°20.239 2°56.104 16.4222 4.03003 31.275152 8.576047
2009-06-16 05:58:19 51°20.25 2°56.116 16.4027 4.031482 31.29912 8.784991
2009-06-16 05:58:25 51°20.268 2°56.135 16.3926 4.031275 31.303667 8.541223
2009-06-16 05:58:30 51°20.283 2°56.151 16.3883 4.03252 31.318246 8.576047
2009-06-16 05:58:35 51°20.297 2°56.167 16.3904 4.034179 31.333246 8.680519
2009-06-16 05:58:39 51°20.308 2°56.18 16.394 4.037602 31.367963 8.401926
2009-06-16 05:58:45 51°20.326 2°56.197 16.3932 4.037602 31.367963 8.401926
2009-06-16 05:58:50 51°20.34 2°56.214 16.3834 4.03895 31.388548 8.43675
2009-06-16 05:58:55 51°20.355 2°56.229 16.3617 4.041544 31.421842 8.158158
2009-06-16 05:58:59 51°20.366 2°56.242 16.3763 4.041544 31.428856 8.43675
2009-06-16 05:59:05 51°20.384 2°56.26 16.359 4.044759 31.463114 8.158158
2009-06-16 05:59:10 51°20.398 2°56.276 16.3586 4.045174 31.469905 8.192982
2009-06-16 05:59:15 51°20.413 2°56.291 16.3607 4.045174 31.469905 8.192982
2009-06-16 05:59:19 51°20.425 2°56.304 16.3575 4.043722 31.460506 8.123334
2009-06-16 05:59:25 51°20.442 2°56.323 16.3615 4.044033 31.468954 8.227806
2009-06-16 05:59:30 51°20.457 2°56.337 16.3536 4.000473 31.098375 8.053686
2009-06-16 05:59:35 51°20.471 2°56.353 16.3525 4.050257 31.535111 8.018862
2009-06-16 05:59:40 51°20.486 2°56.369 16.34 4.051813 31.555027 7.91439
2009-06-16 05:59:45 51°20.501 2°56.384 16.3396 4.051813 31.555027 7.91439
2009-06-16 05:59:50 51°20.515 2°56.4 16.3371 4.052435 31.561713 7.949214
2009-06-16 05:59:55 51°20.53 2°56.415 16.3473 4.053058 31.569683 7.949214
2009-06-16 06:00:00 51°20.544 2°56.431 16.3374 4.053369 31.573668 7.984038
2009-06-16 06:00:05 51°20.559 2°56.446 16.3373 4.054095 31.581257 7.809917
2009-06-16 06:00:10 51°20.573 2°56.463 16.33 4.054614 31.590899 7.949214
2009-06-16 06:00:15 51°20.588 2°56.478 16.3337 4.054614 31.590899 7.949214
2009-06-16 06:00:19 51°20.6 2°56.49 16.3232 4.054925 31.598098 7.809917
2009-06-16 06:00:25 51°20.617 2°56.509 16.3272 4.055029 31.60157 8.018862
2009-06-16 06:00:30 51°20.632 2°56.524 16.3176 4.055236 31.604658 7.740269
2009-06-16 06:00:35 51°20.646 2°56.541 16.3213 4.055547 31.609933 8.018862
2009-06-16 06:00:39 51°20.658 2°56.552 16.3109 4.055962 31.615467 7.705445
2009-06-16 06:00:45 51°20.675 2°56.572 16.3151 4.055962 31.615467 7.705445
2009-06-16 06:00:50 51°20.69 2°56.585 16.3116 4.056481 31.622547 7.879566
2009-06-16 06:00:55 51°20.704 2°56.603 16.3062 4.056792 31.628469 7.809917
2009-06-16 06:00:59 51°20.716 2°56.614 16.3135 4.057207 31.635294 7.740269
2009-06-16 06:01:05 51°20.733 2°56.633 16.3101 4.057207 31.637869 7.844741
2009-06-16 06:01:10 51°20.748 2°56.648 16.2975 4.057311 31.64199 7.809917
2009-06-16 06:01:15 51°20.763 2°56.663 16.3002 4.057311 31.64199 7.809917
2009-06-16 06:01:19 51°20.775 2°56.675 16.2963 4.054407 31.619957 7.600973
2009-06-16 06:01:24 51°20.789 2°56.691 16.2883 4.057726 31.650107 7.740269
2009-06-16 06:01:30 51°20.807 2°56.71 16.2906 4.058141 31.655648 7.670621
2009-06-16 06:01:35 51°20.821 2°56.726 16.2832 4.058763 31.66235 7.705445
2009-06-16 06:01:39 51°20.833 2°56.738 16.2877 4.058763 31.664284 7.670621
2009-06-16 06:01:45 51°20.85 2°56.758 16.2914 4.058763 31.664284 7.670621
2009-06-16 06:01:50 51°20.865 2°56.774 16.2909 4.059697 31.676918 7.600973
2009-06-16 06:01:55 51°20.879 2°56.79 16.2828 4.0598 31.680401 7.670621
2009-06-16 06:02:00 51°20.894 2°56.805 16.2783 4.060215 31.687238 7.461677
2009-06-16 06:02:05 51°20.908 2°56.822 16.2876 4.060319 31.690722 7.705445
2009-06-16 06:02:10 51°20.923 2°56.837 16.2926 4.060319 31.69395 7.461677
2009-06-16 06:02:15 51°20.937 2°56.852 16.2831 4.060319 31.69395 7.461677
2009-06-16 06:02:20 51°20.952 2°56.868 16.2867 4.060319 31.695242 7.740269
2009-06-16 06:02:25 51°20.967 2°56.884 16.2875 4.060942 31.701304 7.461677
2009-06-16 06:02:30 51°20.981 2°56.9 16.2835 4.061045 31.703499 7.566149
2009-06-16 06:02:35 51°20.996 2°56.915 16.2773 4.061253 31.707243 7.392029
2009-06-16 06:02:39 51°21.008 2°56.928 16.2763 4.061045 31.704791 7.705445
2009-06-16 06:02:45 51°21.026 2°56.947 16.2714 4.061045 31.704791 7.705445
2009-06-16 06:02:50 51°21.04 2°56.964 16.2737 4.06146 31.709049 7.426853
2009-06-16 06:02:55 51°21.055 2°56.979 16.2644 4.061564 31.710598 7.426853
2009-06-16 06:02:59 51°21.066 2°56.994 16.2689 4.06146 31.710341 7.705445
2009-06-16 06:03:05 51°21.084 2°57.012 16.2666 4.061772 31.714989 7.392029
2009-06-16 06:03:10 51°21.098 2°57.029 16.2726 4.061668 31.715378 7.461677
2009-06-16 06:03:15 51°21.113 2°57.045 16.2673 4.061668 31.715378 7.461677
2009-06-16 06:03:19 51°21.125 2°57.058 16.2782 4.061149 31.713448 7.635797
2009-06-16 06:03:25 51°21.143 2°57.076 16.2659 4.061046 31.713838 7.392029
2009-06-16 06:03:30 51°21.157 2°57.093 16.2693 4.060527 31.713201 7.600973
2009-06-16 06:03:35 51°21.172 2°57.107 16.2575 4.060216 31.711138 7.357205
2009-06-16 06:03:39 51°21.183 2°57.122 16.2748 4.059801 31.708817 7.392029
2009-06-16 06:03:44 51°21.199 2°57.135 16.2573 4.059801 31.708817 7.392029
2009-06-16 06:03:50 51°21.216 2°57.156 16.2604 4.05949 31.705461 7.426853
2009-06-16 06:03:55 51°21.231 2°57.171 16.2555 4.059801 31.707525 7.287557
2009-06-16 06:03:59 51°21.243 2°57.184 16.2585 4.059386 31.704558 7.217908
2009-06-16 06:04:05 51°21.261 2°57.203 16.2547 4.058971 31.702884 7.113436
2009-06-16 06:04:10 51°21.276 2°57.219 16.2594 4.058453 31.69966 7.113436
2009-06-16 06:04:15 51°21.29 2°57.235 16.2595 4.058453 31.69966 7.113436
2009-06-16 06:04:20 51°21.305 2°57.251 16.251 4.058556 31.702503 7.113436
2009-06-16 06:04:25 51°21.32 2°57.266 16.2492 4.058349 31.702635 7.183084
2009-06-16 06:04:30 51°21.335 2°57.283 16.2488 4.057312 31.696187 7.183084
2009-06-16 06:04:35 51°21.349 2°57.298 16.2539 4.057519 31.69864 7.078612
2009-06-16 06:04:40 51°21.364 2°57.315 16.2537 4.056586 31.691802 7.183084
2009-06-16 06:04:45 51°21.379 2°57.33 16.2496 4.056586 31.691802 7.183084
2009-06-16 06:04:50 51°21.394 2°57.347 16.2486 4.056482 31.690252 7.043788
2009-06-16 06:04:55 51°21.409 2°57.363 16.2524 4.056378 31.690641 7.252733
2009-06-16 06:04:59 51°21.421 2°57.375 16.2548 4.056171 31.690773 7.078612
2009-06-16 06:05:05 51°21.438 2°57.396 16.2497 4.055445 31.685095 6.97414
2009-06-16 06:05:10 51°21.453 2°57.411 16.2451 4.055652 31.686902 7.043788
2009-06-16 06:05:15 51°21.468 2°57.428 16.2435 4.055652 31.686902 7.043788
2009-06-16 06:05:19 51°21.48 2°57.441 16.2411 4.055237 31.683934 6.97414
2009-06-16 06:05:25 51°21.498 2°57.46 16.2508 4.055237 31.685873 7.113436
2009-06-16 06:05:30 51°21.512 2°57.477 16.2464 4.054926 31.683163 7.008964
2009-06-16 06:05:35 51°21.527 2°57.492 16.2423 4.054615 31.680452 6.97414
2009-06-16 06:05:39 51°21.539 2°57.505 16.2414 4.054304 31.679034 6.904492
2009-06-16 06:05:45 51°21.556 2°57.524 16.2396 4.054304 31.679034 6.904492
2009-06-16 06:05:50 51°21.571 2°57.54 16.2369 4.054096 31.678519 6.869668
2009-06-16 06:05:55 51°21.586 2°57.556 16.2375 4.053474 31.67439 6.904492
2009-06-16 06:05:59 51°21.598 2°57.568 16.2399 4.054304 31.681619 6.939316
2009-06-16 06:06:05 51°21.615 2°57.588 16.2389 4.053474 31.675036 6.869668
2009-06-16 06:06:10 51°21.63 2°57.603 16.2405 4.052644 31.669745 6.97414
2009-06-16 06:06:15 51°21.645 2°57.62 16.2368 4.052644 31.669745 6.97414
2009-06-16 06:06:20 51°21.66 2°57.635 16.2423 4.05223 31.668069 6.939316
2009-06-16 06:06:25 51°21.674 2°57.652 16.2452 4.051815 31.665747 6.97414
2009-06-16 06:06:30 51°21.689 2°57.668 16.2462 4.050985 31.658517 7.078612
2009-06-16 06:06:35 51°21.703 2°57.685 16.238 4.051711 31.665489 6.97414
2009-06-16 06:06:39 51°21.715 2°57.697 16.2293 4.031797 31.491398 6.97414
2009-06-16 06:06:45 51°21.732 2°57.718 16.2374 4.031797 31.491398 6.97414
2009-06-16 06:06:50 51°21.747 2°57.733 16.2303 4.050466 31.654644 6.97414
2009-06-16 06:06:55 51°21.762 2°57.75 16.228 4.04974 31.648318 7.078612
2009-06-16 06:06:59 51°21.774 2°57.764 16.23 4.049844 31.648576 7.043788
2009-06-16 06:07:05 51°21.791 2°57.783 16.2293 4.050155 31.652579 7.008964
2009-06-16 06:07:10 51°21.806 2°57.8 16.228 4.049948 31.652064 7.113436
2009-06-16 06:07:15 51°21.82 2°57.815 16.2254 4.049948 31.652064 7.113436
2009-06-16 06:07:19 51°21.832 2°57.828 16.2294 4.050674 31.660975 7.113436
2009-06-16 06:07:25 51°21.85 2°57.847 16.2247 4.051089 31.665236 7.043788
2009-06-16 06:07:30 51°21.864 2°57.863 16.221 4.051089 31.666529 7.14826
2009-06-16 06:07:35 51°21.879 2°57.879 16.2208 4.050985 31.666272 7.217908
2009-06-16 06:07:39 51°21.89 2°57.893 16.2163 4.0514 31.67118 7.217908
2009-06-16 06:07:45 51°21.908 2°57.911 16.2175 4.0514 31.67118 7.217908
2009-06-16 06:07:50 51°21.923 2°57.928 16.2185 4.050881 31.667953 7.183084
2009-06-16 06:07:55 51°21.938 2°57.942 16.2133 4.051711 31.676479 7.252733
2009-06-16 06:07:59 51°21.949 2°57.957 16.2186 4.051089 31.671701 7.287557
2009-06-16 06:08:05 51°21.967 2°57.975 16.2126 4.051607 31.676868 7.287557
2009-06-16 06:08:10 51°21.981 2°57.991 16.2097 4.0514 31.676353 7.322381
2009-06-16 06:08:15 51°21.996 2°58.008 16.214 4.0514 31.676353 7.322381
2009-06-16 06:08:19 51°22.008 2°58.02 16.215 4.0514 31.678941 7.322381
2009-06-16 06:08:25 51°22.025 2°58.04 16.2085 4.050881 31.675066 7.357205
2009-06-16 06:08:30 51°22.04 2°58.056 16.2088 4.050467 31.672096 7.392029
2009-06-16 06:08:35 51°22.055 2°58.073 16.2083 4.050778 31.676103 7.496501
2009-06-16 06:08:39 51°22.067 2°58.086 16.2127 4.049429 31.665641 7.740269
2009-06-16 06:08:45 51°22.084 2°58.105 16.2062 4.049429 31.665641 7.740269
2009-06-16 06:08:50 51°22.099 2°58.121 16.2036 4.045903 31.635545 7.705445
2009-06-16 06:08:55 51°22.113 2°58.138 16.2072 4.037501 31.562967 7.392029
2009-06-16 06:09:00 51°22.128 2°58.153 16.2071 4.046421 31.642004 7.392029
2009-06-16 06:09:05 51°22.143 2°58.17 16.2077 4.047044 31.648722 7.496501
2009-06-16 06:09:10 51°22.158 2°58.185 16.2089 4.046422 31.643297 7.531325
2009-06-16 06:09:15 51°22.172 2°58.201 16.2068 4.046422 31.643297 7.531325
2009-06-16 06:09:20 51°22.187 2°58.217 16.2048 4.048911 31.665 7.531325
2009-06-16 06:09:25 51°22.202 2°58.233 16.2076 4.045695 31.638906 7.461677
2009-06-16 06:09:30 51°22.217 2°58.25 16.2094 4.048911 31.668234 7.357205
2009-06-16 06:09:35 51°22.232 2°58.264 16.2101 4.052126 31.695626 7.357205
2009-06-16 06:09:39 51°22.244 2°58.278 16.2079 4.046422 31.645882 7.392029
2009-06-16 06:09:45 51°22.261 2°58.297 16.205 4.046422 31.645882 7.392029
2009-06-16 06:09:50 51°22.276 2°58.313 16.2057 4.047251 31.653764 7.357205
2009-06-16 06:09:55 51°22.29 2°58.33 16.2007 4.042688 31.613975 7.426853
2009-06-16 06:09:59 51°22.302 2°58.343 16.2014 4.049741 31.67547 7.357205
2009-06-16 06:10:05 51°22.319 2°58.363 16.2018 4.048185 31.661256 7.287557
2009-06-16 06:10:10 51°22.334 2°58.378 16.1976 4.049222 31.6703 7.322381
2009-06-16 06:10:15 51°22.349 2°58.396 16.1991 4.049222 31.6703 7.322381
2009-06-16 06:10:19 51°22.361 2°58.408 16.1998 4.0514 31.689942 7.357205
2009-06-16 06:10:25 51°22.378 2°58.428 16.195 4.047355 31.655961 7.287557
2009-06-16 06:10:30 51°22.393 2°58.444 16.195 4.051193 31.690722 7.392029
2009-06-16 06:10:35 51°22.407 2°58.461 16.1931 4.044243 31.631415 7.287557
2009-06-16 06:10:39 51°22.419 2°58.474 16.1934 4.046214 31.649246 7.287557
2009-06-16 06:10:45 51°22.437 2°58.493 16.1931 4.046214 31.649246 7.287557
2009-06-16 06:10:50 51°22.452 2°58.509 16.1935 4.047563 31.662298 7.322381
2009-06-16 06:10:55 51°22.467 2°58.525 16.1909 4.045592 31.645112 7.357205
2009-06-16 06:11:00 51°22.482 2°58.542 16.1951 4.04777 31.665401 7.322381
2009-06-16 06:11:05 51°22.497 2°58.557 16.1929 4.04414 31.635035 7.322381
2009-06-16 06:11:10 51°22.511 2°58.575 16.192 4.044244 31.636586 7.252733
2009-06-16 06:11:15 51°22.526 2°58.59 16.1926 4.044244 31.636586 7.252733
2009-06-16 06:11:20 51°22.541 2°58.607 16.1931 4.04331 31.630385 7.357205
2009-06-16 06:11:25 51°22.556 2°58.623 16.1933 4.044036 31.636716 7.357205
2009-06-16 06:11:30 51°22.57 2°58.64 16.1938 4.043518 31.63284 7.287557
2009-06-16 06:11:35 51°22.585 2°58.657 16.1943 4.043518 31.632194 7.217908
2009-06-16 06:11:39 51°22.597 2°58.669 16.1942 4.043518 31.632194 7.078612
2009-06-16 06:11:45 51°22.614 2°58.689 16.1928 4.043518 31.632194 7.078612
2009-06-16 06:11:50 51°22.629 2°58.705 16.1955 4.05389 31.722669 7.113436
2009-06-16 06:11:55 51°22.644 2°58.721 16.1944 4.054408 31.727194 7.14826
2009-06-16 06:11:59 51°22.656 2°58.735 16.1937 4.05389 31.722669 7.183084
2009-06-16 06:12:05 51°22.674 2°58.753 16.194 4.05472 31.730557 7.217908
2009-06-16 06:12:10 51°22.688 2°58.771 16.1953 4.05472 31.730557 7.113436
2009-06-16 06:12:15 51°22.703 2°58.786 16.197 4.05472 31.730557 7.113436
2009-06-16 06:12:19 51°22.715 2°58.801 16.1964 4.054512 31.728747 7.078612
2009-06-16 06:12:25 51°22.733 2°58.819 16.1956 4.054927 31.732367 7.183084
2009-06-16 06:12:30 51°22.748 2°58.836 16.1947 4.05472 31.730557 7.078612
2009-06-16 06:12:35 51°22.763 2°58.853 16.1978 4.054823 31.732111 7.113436
2009-06-16 06:12:39 51°22.775 2°58.865 16.1924 4.05472 31.730557 7.078612
2009-06-16 06:12:45 51°22.792 2°58.886 16.196 4.05472 31.730557 7.078612
2009-06-16 06:12:50 51°22.807 2°58.902 16.1973 4.05472 31.72926 7.078612
2009-06-16 06:12:55 51°22.822 2°58.919 16.1931 4.054512 31.72745 7.217908
2009-06-16 06:12:59 51°22.834 2°58.931 16.1925 4.054512 31.728099 7.183084
2009-06-16 06:13:05 51°22.852 2°58.952 16.1937 4.054408 31.727194 7.078612
2009-06-16 06:13:10 51°22.867 2°58.968 16.1938 4.054408 31.727194 7.113436
2009-06-16 06:13:15 51°22.881 2°58.985 16.1963 4.054408 31.727194 7.113436
2009-06-16 06:13:20 51°22.896 2°59.001 16.1942 4.053579 31.719954 7.008964
2009-06-16 06:13:25 51°22.911 2°59.019 16.1958 4.053267 31.716591 7.113436
2009-06-16 06:13:30 51°22.926 2°59.034 16.1937 4.054097 31.724479 7.113436
2009-06-16 06:13:35 51°22.94 2°59.051 16.1961 4.053786 31.722412 7.113436
2009-06-16 06:13:39 51°22.952 2°59.064 16.1957 4.053682 31.721507 6.97414
2009-06-16 06:13:45 51°22.97 2°59.084 16.1916 4.053682 31.721507 6.97414
2009-06-16 06:13:50 51°22.985 2°59.1 16.1893 4.053579 31.719954 7.043788
2009-06-16 06:13:55 51°23 2°59.115 16.189 4.053475 31.719049 7.078612
2009-06-16 06:13:59 51°23.012 2°59.129 16.1884 4.053267 31.717239 7.183084
2009-06-16 06:14:05 51°23.03 2°59.148 16.1873 4.05306 31.716078 7.008964
2009-06-16 06:14:10 51°23.044 2°59.165 16.1917 4.052956 31.715173 7.043788
2009-06-16 06:14:15 51°23.059 2°59.181 16.1878 4.052956 31.715173 7.043788
2009-06-16 06:14:19 51°23.071 2°59.194 16.1866 4.052749 31.713363 7.043788
2009-06-16 06:14:25 51°23.089 2°59.214 16.1841 4.052645 31.713754 7.008964
2009-06-16 06:14:30 51°23.103 2°59.231 16.1878 4.052023 31.709621 7.043788
2009-06-16 06:14:35 51°23.118 2°59.247 16.1856 4.052438 31.714537 7.113436
2009-06-16 06:14:39 51°23.13 2°59.26 16.181 4.051815 31.709107 7.078612
2009-06-16 06:14:45 51°23.147 2°59.281 16.1839 4.051815 31.709107 7.078612
2009-06-16 06:14:50 51°23.163 2°59.296 16.1792 4.052438 31.715185 7.043788
2009-06-16 06:14:55 51°23.177 2°59.313 16.1794 4.052334 31.71428 7.043788
2009-06-16 06:14:59 51°23.189 2°59.326 16.1739 4.052956 31.721007 7.008964
2009-06-16 06:15:05 51°23.207 2°59.345 16.1803 4.053268 31.724371 6.939316
2009-06-16 06:15:10 51°23.222 2°59.361 16.1749 4.053371 31.725925 6.939316
2009-06-16 06:15:15 51°23.236 2°59.377 16.1763 4.053371 31.725925 6.939316
2009-06-16 06:15:20 51°23.251 2°59.394 16.1788 4.053994 31.732653 6.97414
2009-06-16 06:15:24 51°23.262 2°59.408 16.1787 4.053786 31.73214 7.043788
2009-06-16 06:15:30 51°23.281 2°59.427 16.1718 4.054927 31.743396 6.939316
2009-06-16 06:15:35 51°23.295 2°59.444 16.1685 4.055238 31.746761 6.97414
2009-06-16 06:15:40 51°23.31 2°59.46 16.1684 4.05555 31.750776 7.008964
2009-06-16 06:15:45 51°23.325 2°59.477 16.1691 4.05555 31.750776 7.008964
2009-06-16 06:15:50 51°23.339 2°59.495 16.1714 4.054927 31.746642 6.97414
2009-06-16 06:15:55 51°23.355 2°59.509 16.1664 4.055861 31.754791 7.008964
2009-06-16 06:15:59 51°23.366 2°59.524 16.1659 4.055238 31.749358 6.939316
2009-06-16 06:16:05 51°23.384 2°59.542 16.1613 4.056587 31.763077 7.008964
2009-06-16 06:16:10 51°23.399 2°59.558 16.1639 4.056276 31.76231 6.939316
2009-06-16 06:16:15 51°23.414 2°59.573 16.1616 4.056276 31.76231 6.939316
2009-06-16 06:16:19 51°23.426 2°59.585 16.154 4.056587 31.765676 7.008964
2009-06-16 06:16:25 51°23.444 2°59.605 16.1544 4.05752 31.774477 6.904492
2009-06-16 06:16:30 51°23.459 2°59.619 16.1544 4.057935 31.779399 6.904492
2009-06-16 06:16:35 51°23.473 2°59.636 16.1531 4.058143 31.783161 6.834844
2009-06-16 06:16:39 51°23.485 2°59.647 16.1458 4.058143 31.784461 7.043788
2009-06-16 06:16:45 51°23.503 2°59.666 16.1479 4.058143 31.784461 7.043788
2009-06-16 06:16:50 51°23.518 2°59.68 16.1433 4.058247 31.786017 6.939316
2009-06-16 06:16:55 51°23.532 2°59.696 16.1393 4.05835 31.788874 6.904492
2009-06-16 06:16:59 51°23.544 2°59.708 16.1413 4.058558 31.791987 6.904492
2009-06-16 06:17:05 51°23.562 2°59.727 16.1382 4.058869 31.796656 6.80002
2009-06-16 06:17:10 51°23.576 2°59.743 16.1364 4.059388 31.803789 6.765196
2009-06-16 06:17:15 51°23.591 2°59.758 16.1389 4.059388 31.803789 6.765196
2009-06-16 06:17:19 51°23.603 2°59.771 16.1364 4.059906 31.810273 6.834844
2009-06-16 06:17:25 51°23.621 2°59.789 16.1381 4.060632 31.81857 6.695548
2009-06-16 06:17:30 51°23.635 2°59.805 16.1381 4.061462 31.828426 6.765196
2009-06-16 06:17:35 51°23.65 2°59.821 16.1346 4.062188 31.836074 6.6259
2009-06-16 06:17:39 51°23.661 2°59.833 16.1381 4.063122 31.845536 6.695548
2009-06-16 06:17:45 51°23.679 2°59.853 16.1372 4.063122 31.845536 6.695548
2009-06-16 06:17:50 51°23.694 2°59.869 16.1407 4.063433 31.849559 6.695548
2009-06-16 06:17:55 51°23.708 2°59.885 16.139 4.06447 31.859277 6.80002
2009-06-16 06:18:00 51°23.723 2°59.901 16.1378 4.0653 31.867183 6.730372
2009-06-16 06:18:05 51°23.738 2°59.918 16.1356 4.065819 31.872369 6.6259
2009-06-16 06:18:10 51°23.753 2°59.933 16.1382 4.066649 31.880276 6.695548
2009-06-16 06:18:15 51°23.767 2°59.95 16.1386 4.066649 31.880276 6.695548
2009-06-16 06:18:20 51°23.782 2°59.964 16.1351 4.067893 31.891157 6.591076
2009-06-16 06:18:25 51°23.796 2°59.981 16.1356 4.068619 31.896852 6.660724
2009-06-16 06:18:30 51°23.811 2°59.997 16.1364 4.069138 31.901386 6.591076
2009-06-16 06:18:35 51°23.826 3°0.012 16.1352 4.069968 31.909295 6.695548
2009-06-16 06:18:39 51°23.837 3°0.025 16.1348 4.070279 31.912015 6.591076
2009-06-16 06:18:45 51°23.855 3°0.043 16.1346 4.070279 31.912015 6.591076
2009-06-16 06:18:50 51°23.87 3°0.058 16.1354 4.070901 31.916803 6.660724
2009-06-16 06:18:55 51°23.884 3°0.075 16.1323 4.071316 31.921085 6.695548
2009-06-16 06:19:00 51°23.899 3°0.09 16.1322 4.071731 31.92602 6.660724
2009-06-16 06:19:05 51°23.913 3°0.105 16.1323 4.07225 31.930555 6.6259
2009-06-16 06:19:10 51°23.928 3°0.121 16.1344 4.072665 31.934183 6.6259
2009-06-16 06:19:15 51°23.942 3°0.137 16.1329 4.072665 31.934183 6.6259
2009-06-16 06:19:19 51°23.954 3°0.149 16.1337 4.072976 31.936904 6.6259
2009-06-16 06:19:25 51°23.972 3°0.167 16.1383 4.073391 31.941186 6.6259
2009-06-16 06:19:30 51°23.986 3°0.183 16.1443 4.073806 31.946123 6.695548
2009-06-16 06:19:35 51°24.001 3°0.198 16.1359 4.074117 31.949499 6.730372
2009-06-16 06:19:39 51°24.012 3°0.211 16.1377 4.074325 31.950659 6.660724
2009-06-16 06:19:45 51°24.03 3°0.229 16.136 4.074325 31.950659 6.660724
2009-06-16 06:19:50 51°24.045 3°0.246 16.1396 4.074428 31.951566 6.6259
2009-06-16 06:19:55 51°24.06 3°0.261 16.1383 4.074636 31.95338 6.730372
2009-06-16 06:20:00 51°24.074 3°0.276 16.1432 4.074843 31.953886 6.660724
2009-06-16 06:20:05 51°24.089 3°0.291 16.142 4.074947 31.954139 6.695548
2009-06-16 06:20:10 51°24.103 3°0.308 16.1464 4.074739 31.95167 6.695548
2009-06-16 06:20:15 51°24.118 3°0.323 16.1453 4.074739 31.95167 6.695548
2009-06-16 06:20:20 51°24.132 3°0.339 16.1462 4.071939 31.92718 6.660724
2009-06-16 06:20:25 51°24.147 3°0.354 16.1481 4.07142 31.921992 6.6259
2009-06-16 06:20:30 51°24.162 3°0.37 16.1458 4.075258 31.954897 6.6259
2009-06-16 06:20:35 51°24.177 3°0.386 16.1527 4.075362 31.954496 6.660724
2009-06-16 06:20:40 51°24.192 3°0.4 16.1516 4.075362 31.953188 6.80002
2009-06-16 06:20:45 51°24.206 3°0.416 16.151 4.075362 31.953188 6.80002
2009-06-16 06:20:50 51°24.222 3°0.431 16.1512 4.075362 31.952534 6.834844
2009-06-16 06:20:55 51°24.236 3°0.447 16.1527 4.075465 31.952786 6.765196
2009-06-16 06:20:59 51°24.248 3°0.458 16.1509 4.075362 31.951225 6.695548
2009-06-16 06:21:05 51°24.266 3°0.477 16.1533 4.075362 31.949917 6.695548
2009-06-16 06:21:10 51°24.28 3°0.493 16.1528 4.075362 31.948609 6.765196
2009-06-16 06:21:15 51°24.295 3°0.508 16.161 4.075362 31.948609 6.765196
2009-06-16 06:21:19 51°24.307 3°0.52 16.1557 4.075465 31.948862 6.660724
2009-06-16 06:21:25 51°24.324 3°0.54 16.1592 4.075362 31.947302 6.730372
2009-06-16 06:21:30 51°24.338 3°0.554 16.159 4.075362 31.945994 6.730372
2009-06-16 06:21:35 51°24.353 3°0.568 16.1581 4.075362 31.94534 6.834844
2009-06-16 06:21:39 51°24.364 3°0.582 16.1627 4.075362 31.94534 6.97414
2009-06-16 06:21:45 51°24.382 3°0.599 16.1607 4.075362 31.94534 6.97414
2009-06-16 06:21:50 51°24.396 3°0.615 16.1654 4.075362 31.943379 6.80002
2009-06-16 06:21:55 51°24.411 3°0.63 16.1616 4.075258 31.941818 6.765196
2009-06-16 06:21:59 51°24.423 3°0.642 16.1643 4.075362 31.942071 6.904492
2009-06-16 06:22:05 51°24.44 3°0.659 16.1639 4.075258 31.940511 6.97414
2009-06-16 06:22:10 51°24.455 3°0.674 16.1664 4.075362 31.940764 6.97414
2009-06-16 06:22:15 51°24.47 3°0.689 16.1669 4.075362 31.940764 6.97414
2009-06-16 06:22:20 51°24.484 3°0.704 16.1706 4.075258 31.93855 6.939316
2009-06-16 06:22:25 51°24.499 3°0.72 16.1709 4.075258 31.937244 7.043788
2009-06-16 06:22:30 51°24.513 3°0.734 16.1727 4.075258 31.93659 7.008964
2009-06-16 06:22:35 51°24.528 3°0.75 16.1764 4.075258 31.935937 7.113436
2009-06-16 06:22:39 51°24.539 3°0.763 16.1785 4.075258 31.935283 7.113436
2009-06-16 06:22:45 51°24.557 3°0.78 16.1802 4.075258 31.935283 7.113436
2009-06-16 06:22:50 51°24.572 3°0.795 16.181 4.075361 31.934883 7.008964
2009-06-16 06:22:55 51°24.586 3°0.812 16.1858 4.075361 31.933577 7.113436
2009-06-16 06:23:00 51°24.601 3°0.825 16.1837 4.075361 31.93227 7.252733
2009-06-16 06:23:05 51°24.615 3°0.842 16.1864 4.075361 31.930964 7.217908
2009-06-16 06:23:10 51°24.63 3°0.856 16.1859 4.075569 31.930817 7.14826
2009-06-16 06:23:15 51°24.644 3°0.872 16.1884 4.075569 31.930817 7.14826
2009-06-16 06:23:19 51°24.656 3°0.884 16.1905 4.075569 31.928858 7.252733
2009-06-16 06:23:25 51°24.673 3°0.903 16.1924 4.075776 31.929364 7.287557
2009-06-16 06:23:30 51°24.688 3°0.918 16.1939 4.07588 31.928312 7.287557
2009-06-16 06:23:35 51°24.703 3°0.933 16.1936 4.075984 31.927912 7.252733
2009-06-16 06:23:39 51°24.714 3°0.946 16.1924 4.076191 31.928419 7.217908
2009-06-16 06:23:45 51°24.731 3°0.965 16.1942 4.076191 31.928419 7.217908
2009-06-16 06:23:50 51°24.746 3°0.98 16.1968 4.076295 31.928019 7.252733
2009-06-16 06:23:55 51°24.76 3°0.996 16.1973 4.076502 31.928526 7.217908
2009-06-16 06:23:59 51°24.772 3°1.008 16.2016 4.07671 31.928379 7.496501
2009-06-16 06:24:05 51°24.789 3°1.027 16.2036 4.076917 31.929538 7.461677
2009-06-16 06:24:10 51°24.803 3°1.042 16.2027 4.077228 31.931604 7.426853
2009-06-16 06:24:15 51°24.818 3°1.057 16.206 4.077228 31.931604 7.426853
2009-06-16 06:24:19 51°24.829 3°1.069 16.207 4.077436 31.932763 7.496501
2009-06-16 06:24:25 51°24.846 3°1.088 16.2075 4.077747 31.934175 7.496501
2009-06-16 06:24:30 51°24.861 3°1.103 16.211 4.078058 31.935587 7.635797
2009-06-16 06:24:35 51°24.876 3°1.118 16.211 4.078473 31.937905 7.635797
2009-06-16 06:24:40 51°24.889 3°1.134 16.2131 4.078992 31.940476 7.670621
2009-06-16 06:24:45 51°24.904 3°1.149 16.2142 4.078992 31.940476 7.670621
2009-06-16 06:24:50 51°24.918 3°1.165 16.2152 4.07951 31.943047 7.844741
2009-06-16 06:24:55 51°24.933 3°1.18 16.2152 4.079925 31.945365 7.775093
2009-06-16 06:25:00 51°24.947 3°1.195 16.2178 4.08034 31.947682 7.91439
2009-06-16 06:25:05 51°24.961 3°1.211 16.2183 4.080755 31.95 7.949214
2009-06-16 06:25:10 51°24.976 3°1.226 16.2202 4.08117 31.951664 7.984038
2009-06-16 06:25:15 51°24.991 3°1.241 16.224 4.08117 31.951664 7.984038
2009-06-16 06:25:19 51°25.002 3°1.254 16.2196 4.081688 31.954887 7.984038
2009-06-16 06:25:25 51°25.02 3°1.271 16.2221 4.082207 31.958763 8.08851
2009-06-16 06:25:30 51°25.034 3°1.288 16.2249 4.082726 31.961985 8.227806
2009-06-16 06:25:35 51°25.049 3°1.302 16.2237 4.083244 31.965207 8.192982
2009-06-16 06:25:39 51°25.06 3°1.314 16.2203 4.083659 31.968177 8.08851
2009-06-16 06:25:45 51°25.077 3°1.334 16.2221 4.083659 31.968177 8.08851
2009-06-16 06:25:50 51°25.092 3°1.347 16.2224 4.08397 31.968935 8.26263
2009-06-16 06:25:55 51°25.106 3°1.364 16.2253 4.084489 31.97281 8.26263
2009-06-16 06:25:59 51°25.118 3°1.376 16.2227 4.085008 31.976685 8.43675
2009-06-16 06:26:05 51°25.135 3°1.394 16.2245 4.085111 31.976937 8.297454
2009-06-16 06:26:10 51°25.149 3°1.408 16.2222 4.086252 31.986899 8.227806
2009-06-16 06:26:15 51°25.164 3°1.424 16.2217 4.086252 31.986899 8.227806
2009-06-16 06:26:19 51°25.176 3°1.435 16.2224 4.086045 31.984435 8.227806
2009-06-16 06:26:24 51°25.19 3°1.451 16.2201 4.086875 31.99168 8.192982
2009-06-16 06:26:30 51°25.207 3°1.47 16.2221 4.087186 31.993743 8.192982
2009-06-16 06:26:35 51°25.222 3°1.484 16.2209 4.088016 32.000989 8.297454
2009-06-16 06:26:39 51°25.233 3°1.497 16.2178 4.088846 32.008234 8.158158
2009-06-16 06:26:45 51°25.251 3°1.514 16.2157 4.088846 32.008234 8.158158
2009-06-16 06:26:50 51°25.265 3°1.53 16.2152 4.089364 32.013417 8.297454
2009-06-16 06:26:55 51°25.28 3°1.545 16.212 4.089883 32.017945 8.158158
2009-06-16 06:26:59 51°25.292 3°1.557 16.2116 4.090194 32.021317 8.227806
2009-06-16 06:27:05 51°25.309 3°1.576 16.2106 4.090194 32.021317 8.227806
2009-06-16 06:27:10 51°25.324 3°1.59 16.2091 4.090505 32.025343 8.506398
2009-06-16 06:27:15 51°25.338 3°1.607 16.2078 4.090505 32.025343 8.506398
2009-06-16 06:27:20 51°25.353 3°1.621 16.2062 4.091128 32.032087 8.332278
2009-06-16 06:27:25 51°25.367 3°1.637 16.2055 4.091439 32.035459 8.332278
2009-06-16 06:27:30 51°25.382 3°1.652 16.205 4.09175 32.039486 8.332278
2009-06-16 06:27:35 51°25.396 3°1.667 16.2046 4.091646 32.039889 8.332278
2009-06-16 06:27:39 51°25.408 3°1.679 16.2038 4.092269 32.04598 8.26263
2009-06-16 06:27:45 51°25.425 3°1.698 16.2083 4.092269 32.04598 8.26263
2009-06-16 06:27:50 51°25.44 3°1.713 16.2029 4.09258 32.050663 8.297454
2009-06-16 06:27:55 51°25.454 3°1.729 16.2024 4.092684 32.052224 8.297454
2009-06-16 06:27:59 51°25.466 3°1.74 16.2047 4.092995 32.055597 8.43675
2009-06-16 06:28:05 51°25.483 3°1.759 16.2045 4.092995 32.056907 8.227806
2009-06-16 06:28:10 51°25.498 3°1.774 16.2046 4.093099 32.058469 8.227806
2009-06-16 06:28:15 51°25.512 3°1.79 16.2038 4.093099 32.058469 8.227806
2009-06-16 06:28:19 51°25.524 3°1.802 16.2028 4.093306 32.060281 8.227806
2009-06-16 06:28:25 51°25.542 3°1.82 16.2016 4.093514 32.062749 8.297454
2009-06-16 06:28:30 51°25.556 3°1.836 16.1985 4.093617 32.064311 8.227806
2009-06-16 06:28:35 51°25.57 3°1.852 16.2008 4.093617 32.064311 8.158158
2009-06-16 06:28:39 51°25.582 3°1.863 16.1978 4.093929 32.06703 8.227806
2009-06-16 06:28:45 51°25.599 3°1.882 16.1996 4.093929 32.06703 8.227806
2009-06-16 06:28:50 51°25.613 3°1.898 16.2019 4.093825 32.066779 8.123334
2009-06-16 06:28:55 51°25.627 3°1.913 16.1995 4.094136 32.069498 8.053686
2009-06-16 06:28:59 51°25.639 3°1.925 16.1991 4.094447 32.073528 8.08851
2009-06-16 06:29:05 51°25.656 3°1.944 16.1985 4.094136 32.071464 8.158158
2009-06-16 06:29:10 51°25.671 3°1.959 16.1977 4.09341 32.065775 8.158158
2009-06-16 06:29:15 51°25.685 3°1.976 16.1996 4.09341 32.065775 8.158158
2009-06-16 06:29:20 51°25.699 3°1.991 16.1985 4.09424 32.073682 8.053686
2009-06-16 06:29:25 51°25.713 3°2.007 16.1989 4.094966 32.079371 8.018862
2009-06-16 06:29:30 51°25.727 3°2.024 16.1983 4.094759 32.078214 8.158158
2009-06-16 06:29:35 51°25.741 3°2.039 16.1997 4.094136 32.072775 8.018862
2009-06-16 06:29:39 51°25.753 3°2.052 16.199 4.095277 32.083402 8.123334
2009-06-16 06:29:45 51°25.77 3°2.073 16.2024 4.095277 32.083402 8.123334
2009-06-16 06:29:50 51°25.784 3°2.088 16.199 4.095277 32.083402 8.08851
2009-06-16 06:29:55 51°25.798 3°2.105 16.2007 4.095174 32.083151 8.158158
2009-06-16 06:30:00 51°25.812 3°2.121 16.2003 4.095588 32.086122 8.158158
2009-06-16 06:30:05 51°25.826 3°2.137 16.1989 4.095692 32.087028 8.227806
2009-06-16 06:30:10 51°25.84 3°2.154 16.2002 4.096003 32.090404 8.227806
2009-06-16 06:30:15 51°25.854 3°2.17 16.199 4.096003 32.090404 8.227806
2009-06-16 06:30:19 51°25.866 3°2.183 16.2008 4.095277 32.083402 8.332278
2009-06-16 06:30:25 51°25.883 3°2.202 16.197 4.096211 32.091561 8.471574
2009-06-16 06:30:30 51°25.897 3°2.218 16.1987 4.096418 32.092718 8.332278
2009-06-16 06:30:35 51°25.911 3°2.235 16.2003 4.096626 32.093875 8.227806
2009-06-16 06:30:39 51°25.923 3°2.248 16.1985 4.0959 32.088185 8.401926
2009-06-16 06:30:45 51°25.94 3°2.266 16.2003 4.0959 32.088185 8.401926
2009-06-16 06:30:50 51°25.954 3°2.283 16.2033 4.096522 32.093624 8.367102
2009-06-16 06:30:55 51°25.969 3°2.298 16.2003 4.096937 32.097907 8.506398
2009-06-16 06:30:59 51°25.98 3°2.311 16.1993 4.097248 32.100626 8.541223
2009-06-16 06:31:04 51°25.994 3°2.328 16.1993 4.096833 32.097 8.471574
2009-06-16 06:31:10 51°26.011 3°2.347 16.1985 4.097456 32.10244 8.750167
2009-06-16 06:31:15 51°26.025 3°2.363 16.1987 4.097456 32.10244 8.750167
2009-06-16 06:31:19 51°26.037 3°2.376 16.1981 4.097663 32.104253 8.924287
2009-06-16 06:31:25 51°26.054 3°2.396 16.2002 4.096107 32.089998 8.645695
2009-06-16 06:31:30 51°26.068 3°2.412 16.1992 4.097974 32.106316 8.715343
2009-06-16 06:31:35 51°26.082 3°2.429 16.201 4.098182 32.108129 8.784991
2009-06-16 06:31:40 51°26.097 3°2.445 16.2025 4.098286 32.109036 9.028759
2009-06-16 06:31:45 51°26.111 3°2.461 16.2028 4.098286 32.109036 9.028759
2009-06-16 06:31:50 51°26.125 3°2.477 16.2017 4.098493 32.111506 9.168055
2009-06-16 06:31:55 51°26.14 3°2.493 16.2032 4.098493 32.111506 9.063583
2009-06-16 06:31:59 51°26.151 3°2.506 16.2043 4.098389 32.110599 9.272528
2009-06-16 06:32:05 51°26.169 3°2.525 16.2055 4.098908 32.115132 9.377
2009-06-16 06:32:10 51°26.183 3°2.541 16.205 4.099219 32.117196 9.342176
2009-06-16 06:32:15 51°26.197 3°2.558 16.2036 4.099219 32.117196 9.342176
2009-06-16 06:32:19 51°26.209 3°2.57 16.2041 4.099427 32.117696 9.516296
2009-06-16 06:32:25 51°26.226 3°2.59 16.2065 4.099738 32.120416 9.585944
2009-06-16 06:32:30 51°26.24 3°2.606 16.2043 4.099427 32.117696 9.620768
2009-06-16 06:32:35 51°26.254 3°2.622 16.2014 4.100049 32.122479 9.20288
2009-06-16 06:32:39 51°26.266 3°2.635 16.1995 4.09953 32.11729 8.993935
2009-06-16 06:32:45 51°26.283 3°2.654 16.2 4.09953 32.11729 8.993935
2009-06-16 06:32:50 51°26.298 3°2.67 16.2006 4.10036 32.124542 9.133231
2009-06-16 06:32:55 51°26.312 3°2.687 16.2008 4.100153 32.122729 9.028759
2009-06-16 06:32:59 51°26.323 3°2.699 16.1994 4.099945 32.120916 8.993935
2009-06-16 06:33:05 51°26.34 3°2.719 16.1976 4.100879 32.129075 9.028759
2009-06-16 06:33:10 51°26.355 3°2.735 16.1991 4.100879 32.129732 9.133231
2009-06-16 06:33:15 51°26.369 3°2.75 16.2003 4.100879 32.129732 9.133231
2009-06-16 06:33:19 51°26.381 3°2.762 16.1963 4.10119 32.133109 9.098407
2009-06-16 06:33:25 51°26.398 3°2.781 16.1959 4.101294 32.134015 9.272528
2009-06-16 06:33:30 51°26.413 3°2.797 16.1945 4.101294 32.135329 9.20288
2009-06-16 06:33:35 51°26.427 3°2.812 16.196 4.101501 32.137799 9.307352
2009-06-16 06:33:39 51°26.439 3°2.825 16.1946 4.101501 32.137799 9.411824
2009-06-16 06:33:45 51°26.456 3°2.844 16.191 4.101501 32.137799 9.411824
2009-06-16 06:33:50 51°26.47 3°2.86 16.1907 4.101709 32.139613 9.760064
2009-06-16 06:33:55 51°26.485 3°2.875 16.1923 4.101709 32.14027 9.794888
2009-06-16 06:34:00 51°26.499 3°2.892 16.1949 4.101709 32.141584 9.794888
2009-06-16 06:34:05 51°26.513 3°2.907 16.192 4.101916 32.144055 9.72524
2009-06-16 06:34:10 51°26.528 3°2.922 16.1902 4.10202 32.144962 9.272528
2009-06-16 06:34:15 51°26.542 3°2.938 16.1901 4.10202 32.144962 9.272528
2009-06-16 06:34:19 51°26.554 3°2.95 16.1901 4.10202 32.146276 9.133231
2009-06-16 06:34:25 51°26.571 3°2.969 16.188 4.102227 32.148747 9.028759
2009-06-16 06:34:30 51°26.586 3°2.986 16.1861 4.102227 32.148747 9.028759
2009-06-16 06:34:35 51°26.601 3°3 16.1912 4.102331 32.149654 8.959111
2009-06-16 06:34:39 51°26.612 3°3.014 16.1857 4.102435 32.151875 8.993935
2009-06-16 06:34:45 51°26.629 3°3.032 16.1871 4.102435 32.151875 8.993935
2009-06-16 06:34:50 51°26.643 3°3.048 16.186 4.102539 32.152782 8.924287
2009-06-16 06:34:55 51°26.658 3°3.064 16.1873 4.102642 32.154347 8.959111
2009-06-16 06:35:00 51°26.672 3°3.08 16.1858 4.102642 32.155004 9.133231
2009-06-16 06:35:05 51°26.686 3°3.097 16.1877 4.102746 32.156569 9.342176
2009-06-16 06:35:10 51°26.701 3°3.111 16.1845 4.10285 32.158133 9.55112
2009-06-16 06:35:15 51°26.715 3°3.129 16.1874 4.10285 32.158133 9.55112
2009-06-16 06:35:19 51°26.726 3°3.141 16.1855 4.10285 32.158791 9.620768
2009-06-16 06:35:25 51°26.743 3°3.161 16.19 4.10285 32.159449 9.377
2009-06-16 06:35:30 51°26.757 3°3.176 16.1857 4.102746 32.158541 9.307352
2009-06-16 06:35:35 51°26.772 3°3.191 16.1856 4.102746 32.159199 9.307352
2009-06-16 06:35:39 51°26.783 3°3.205 16.1838 4.102954 32.161013 9.411824
2009-06-16 06:35:45 51°26.8 3°3.223 16.1836 4.102954 32.161013 9.411824